<?xml version="1.0" encoding="UTF-8" standalone="yes"?>
<gpx xmlns="http://www.topografix.com/GPX/1/1" xmlns:xsi="http://www.w3.org/2001/XMLSchema-instance" version="1.1" creator="MagicMaps Tour Explorer" xsi:schemaLocation="http://www.topografix.com/GPX/1/1 http://www.topografix.com/GPX/1/1/gpx.xsd">
  <trk>
    <name>notkarspitze-s</name>
    <trkseg>
      <trkpt lat="47.561644139" lon="11.100951657">
        <ele>880.2</ele>
        <time>2022-08-13T06:07:22Z</time>
      </trkpt>
      <trkpt lat="47.561653946" lon="11.100940090">
        <ele>876.9</ele>
        <time>2022-08-13T06:09:45Z</time>
      </trkpt>
      <trkpt lat="47.561656628" lon="11.100969929">
        <ele>876.9</ele>
        <time>2022-08-13T06:10:05Z</time>
      </trkpt>
      <trkpt lat="47.561618658" lon="11.100932630">
        <ele>876.9</ele>
        <time>2022-08-13T06:10:23Z</time>
      </trkpt>
      <trkpt lat="47.561644474" lon="11.100911172">
        <ele>877.8</ele>
        <time>2022-08-13T06:10:29Z</time>
      </trkpt>
      <trkpt lat="47.561542802" lon="11.100973617">
        <ele>878.3</ele>
        <time>2022-08-13T06:10:45Z</time>
      </trkpt>
      <trkpt lat="47.561388742" lon="11.100920895">
        <ele>880.2</ele>
        <time>2022-08-13T06:11:13Z</time>
      </trkpt>
      <trkpt lat="47.561354209" lon="11.100839674">
        <ele>881.2</ele>
        <time>2022-08-13T06:11:44Z</time>
      </trkpt>
      <trkpt lat="47.561196880" lon="11.100698942">
        <ele>883.6</ele>
        <time>2022-08-13T06:12:04Z</time>
      </trkpt>
      <trkpt lat="47.560882810" lon="11.100551924">
        <ele>887.0</ele>
        <time>2022-08-13T06:12:38Z</time>
      </trkpt>
      <trkpt lat="47.560832687" lon="11.100585870">
        <ele>887.4</ele>
        <time>2022-08-13T06:12:53Z</time>
      </trkpt>
      <trkpt lat="47.560851043" lon="11.100529544">
        <ele>887.9</ele>
        <time>2022-08-13T06:13:06Z</time>
      </trkpt>
      <trkpt lat="47.560816258" lon="11.100602048">
        <ele>887.9</ele>
        <time>2022-08-13T06:13:14Z</time>
      </trkpt>
      <trkpt lat="47.560734786" lon="11.100682933">
        <ele>887.9</ele>
        <time>2022-08-13T06:13:32Z</time>
      </trkpt>
      <trkpt lat="47.560469834" lon="11.101163300">
        <ele>888.4</ele>
        <time>2022-08-13T06:14:10Z</time>
      </trkpt>
      <trkpt lat="47.560131541" lon="11.101872576">
        <ele>890.3</ele>
        <time>2022-08-13T06:15:03Z</time>
      </trkpt>
      <trkpt lat="47.560091726" lon="11.101890849">
        <ele>890.3</ele>
        <time>2022-08-13T06:15:14Z</time>
      </trkpt>
      <trkpt lat="47.559903469" lon="11.102218917">
        <ele>891.3</ele>
        <time>2022-08-13T06:15:43Z</time>
      </trkpt>
      <trkpt lat="47.559867762" lon="11.102242889">
        <ele>891.8</ele>
        <time>2022-08-13T06:15:57Z</time>
      </trkpt>
      <trkpt lat="47.559637427" lon="11.102699451">
        <ele>893.7</ele>
        <time>2022-08-13T06:16:35Z</time>
      </trkpt>
      <trkpt lat="47.559568160" lon="11.102750354">
        <ele>891.0</ele>
        <time>2022-08-13T06:16:50Z</time>
      </trkpt>
      <trkpt lat="47.559418576" lon="11.102989884">
        <ele>898.5</ele>
        <time>2022-08-13T06:22:10Z</time>
      </trkpt>
      <trkpt lat="47.559216320" lon="11.103232708">
        <ele>903.3</ele>
        <time>2022-08-13T06:22:48Z</time>
      </trkpt>
      <trkpt lat="47.558713155" lon="11.103616180">
        <ele>912.0</ele>
        <time>2022-08-13T06:23:43Z</time>
      </trkpt>
      <trkpt lat="47.558551468" lon="11.103778537">
        <ele>914.8</ele>
        <time>2022-08-13T06:24:01Z</time>
      </trkpt>
      <trkpt lat="47.558502182" lon="11.103891609">
        <ele>916.8</ele>
        <time>2022-08-13T06:24:17Z</time>
      </trkpt>
      <trkpt lat="47.558468236" lon="11.104356889">
        <ele>921.6</ele>
        <time>2022-08-13T06:25:07Z</time>
      </trkpt>
      <trkpt lat="47.558340579" lon="11.104582027">
        <ele>924.0</ele>
        <time>2022-08-13T06:25:25Z</time>
      </trkpt>
      <trkpt lat="47.558245361" lon="11.104790233">
        <ele>926.9</ele>
        <time>2022-08-13T06:25:44Z</time>
      </trkpt>
      <trkpt lat="47.558148215" lon="11.105139339">
        <ele>930.2</ele>
        <time>2022-08-13T06:26:12Z</time>
      </trkpt>
      <trkpt lat="47.558060959" lon="11.105269762">
        <ele>931.6</ele>
        <time>2022-08-13T06:26:27Z</time>
      </trkpt>
      <trkpt lat="47.558025755" lon="11.105072452">
        <ele>932.6</ele>
        <time>2022-08-13T06:26:45Z</time>
      </trkpt>
      <trkpt lat="47.557944786" lon="11.104915291">
        <ele>935.5</ele>
        <time>2022-08-13T06:27:07Z</time>
      </trkpt>
      <trkpt lat="47.557868678" lon="11.104715299">
        <ele>938.9</ele>
        <time>2022-08-13T06:27:37Z</time>
      </trkpt>
      <trkpt lat="47.557880580" lon="11.104616392">
        <ele>940.8</ele>
        <time>2022-08-13T06:27:52Z</time>
      </trkpt>
      <trkpt lat="47.557908744" lon="11.104561240">
        <ele>943.2</ele>
        <time>2022-08-13T06:28:03Z</time>
      </trkpt>
      <trkpt lat="47.557963310" lon="11.104519581">
        <ele>946.6</ele>
        <time>2022-08-13T06:28:17Z</time>
      </trkpt>
      <trkpt lat="47.557954760" lon="11.104468955">
        <ele>946.6</ele>
        <time>2022-08-13T06:29:05Z</time>
      </trkpt>
      <trkpt lat="47.557989964" lon="11.104337359">
        <ele>949.0</ele>
        <time>2022-08-13T06:29:24Z</time>
      </trkpt>
      <trkpt lat="47.557978481" lon="11.104129991">
        <ele>953.8</ele>
        <time>2022-08-13T06:29:59Z</time>
      </trkpt>
      <trkpt lat="47.558013098" lon="11.103988923">
        <ele>956.2</ele>
        <time>2022-08-13T06:30:15Z</time>
      </trkpt>
      <trkpt lat="47.557968842" lon="11.103913989">
        <ele>958.1</ele>
        <time>2022-08-13T06:30:29Z</time>
      </trkpt>
      <trkpt lat="47.557903798" lon="11.103607044">
        <ele>964.8</ele>
        <time>2022-08-13T06:31:17Z</time>
      </trkpt>
      <trkpt lat="47.557844706" lon="11.103517860">
        <ele>967.2</ele>
        <time>2022-08-13T06:31:35Z</time>
      </trkpt>
      <trkpt lat="47.557840263" lon="11.103375116">
        <ele>969.6</ele>
        <time>2022-08-13T06:31:54Z</time>
      </trkpt>
      <trkpt lat="47.557808161" lon="11.103255255">
        <ele>973.0</ele>
        <time>2022-08-13T06:32:12Z</time>
      </trkpt>
      <trkpt lat="47.557760384" lon="11.103164898">
        <ele>975.4</ele>
        <time>2022-08-13T06:32:30Z</time>
      </trkpt>
      <trkpt lat="47.557774549" lon="11.102993572">
        <ele>980.2</ele>
        <time>2022-08-13T06:33:03Z</time>
      </trkpt>
      <trkpt lat="47.557749152" lon="11.102855103">
        <ele>983.6</ele>
        <time>2022-08-13T06:33:21Z</time>
      </trkpt>
      <trkpt lat="47.557839677" lon="11.102707414">
        <ele>988.4</ele>
        <time>2022-08-13T06:33:55Z</time>
      </trkpt>
      <trkpt lat="47.557896757" lon="11.102680424">
        <ele>991.7</ele>
        <time>2022-08-13T06:34:13Z</time>
      </trkpt>
      <trkpt lat="47.557986779" lon="11.102587972">
        <ele>995.6</ele>
        <time>2022-08-13T06:34:42Z</time>
      </trkpt>
      <trkpt lat="47.558052829" lon="11.102452353">
        <ele>1000.4</ele>
        <time>2022-08-13T06:35:14Z</time>
      </trkpt>
      <trkpt lat="47.558065066" lon="11.102317069">
        <ele>1002.8</ele>
        <time>2022-08-13T06:35:32Z</time>
      </trkpt>
      <trkpt lat="47.558114687" lon="11.102100899">
        <ele>1008.1</ele>
        <time>2022-08-13T06:36:04Z</time>
      </trkpt>
      <trkpt lat="47.558137151" lon="11.102075586">
        <ele>1008.6</ele>
        <time>2022-08-13T06:36:08Z</time>
      </trkpt>
      <trkpt lat="47.558192387" lon="11.101893866">
        <ele>1010.5</ele>
        <time>2022-08-13T06:36:26Z</time>
      </trkpt>
      <trkpt lat="47.558164475" lon="11.101597901">
        <ele>1017.2</ele>
        <time>2022-08-13T06:37:15Z</time>
      </trkpt>
      <trkpt lat="47.558179479" lon="11.101474101">
        <ele>1019.6</ele>
        <time>2022-08-13T06:37:32Z</time>
      </trkpt>
      <trkpt lat="47.558156010" lon="11.101349881">
        <ele>1020.6</ele>
        <time>2022-08-13T06:37:47Z</time>
      </trkpt>
      <trkpt lat="47.558149472" lon="11.101187188">
        <ele>1023.0</ele>
        <time>2022-08-13T06:38:08Z</time>
      </trkpt>
      <trkpt lat="47.558075879" lon="11.101169838">
        <ele>1025.4</ele>
        <time>2022-08-13T06:38:26Z</time>
      </trkpt>
      <trkpt lat="47.558053248" lon="11.101101609">
        <ele>1027.3</ele>
        <time>2022-08-13T06:38:43Z</time>
      </trkpt>
      <trkpt lat="47.558048973" lon="11.100959200">
        <ele>1030.2</ele>
        <time>2022-08-13T06:39:05Z</time>
      </trkpt>
      <trkpt lat="47.558018966" lon="11.100890050">
        <ele>1032.6</ele>
        <time>2022-08-13T06:39:22Z</time>
      </trkpt>
      <trkpt lat="47.557972027" lon="11.100548403">
        <ele>1036.4</ele>
        <time>2022-08-13T06:39:59Z</time>
      </trkpt>
      <trkpt lat="47.557904050" lon="11.100459388">
        <ele>1038.4</ele>
        <time>2022-08-13T06:40:18Z</time>
      </trkpt>
      <trkpt lat="47.557932213" lon="11.100301305">
        <ele>1042.7</ele>
        <time>2022-08-13T06:40:51Z</time>
      </trkpt>
      <trkpt lat="47.557946378" lon="11.100078681">
        <ele>1048.9</ele>
        <time>2022-08-13T06:41:31Z</time>
      </trkpt>
      <trkpt lat="47.557985187" lon="11.099891849">
        <ele>1053.3</ele>
        <time>2022-08-13T06:42:07Z</time>
      </trkpt>
      <trkpt lat="47.557921987" lon="11.099819345">
        <ele>1055.7</ele>
        <time>2022-08-13T06:42:28Z</time>
      </trkpt>
      <trkpt lat="47.557867086" lon="11.099512987">
        <ele>1066.2</ele>
        <time>2022-08-13T06:43:35Z</time>
      </trkpt>
      <trkpt lat="47.557895165" lon="11.099463869">
        <ele>1068.2</ele>
        <time>2022-08-13T06:45:50Z</time>
      </trkpt>
      <trkpt lat="47.557940595" lon="11.099463785">
        <ele>1069.6</ele>
        <time>2022-08-13T06:48:29Z</time>
      </trkpt>
      <trkpt lat="47.557990467" lon="11.099385833">
        <ele>1069.6</ele>
        <time>2022-08-13T06:48:45Z</time>
      </trkpt>
      <trkpt lat="47.558029359" lon="11.099218363">
        <ele>1077.8</ele>
        <time>2022-08-13T06:49:08Z</time>
      </trkpt>
      <trkpt lat="47.557967333" lon="11.098955087">
        <ele>1086.0</ele>
        <time>2022-08-13T06:49:52Z</time>
      </trkpt>
      <trkpt lat="47.557957107" lon="11.098839166">
        <ele>1089.3</ele>
        <time>2022-08-13T06:50:09Z</time>
      </trkpt>
      <trkpt lat="47.558068167" lon="11.098715114">
        <ele>1094.6</ele>
        <time>2022-08-13T06:50:38Z</time>
      </trkpt>
      <trkpt lat="47.558249049" lon="11.098605310">
        <ele>1099.4</ele>
        <time>2022-08-13T06:51:08Z</time>
      </trkpt>
      <trkpt lat="47.558315937" lon="11.098504225">
        <ele>1101.8</ele>
        <time>2022-08-13T06:51:27Z</time>
      </trkpt>
      <trkpt lat="47.558377124" lon="11.098319152">
        <ele>1107.1</ele>
        <time>2022-08-13T06:51:53Z</time>
      </trkpt>
      <trkpt lat="47.558421129" lon="11.098256959">
        <ele>1109.5</ele>
        <time>2022-08-13T06:52:07Z</time>
      </trkpt>
      <trkpt lat="47.558453484" lon="11.098165009">
        <ele>1111.4</ele>
        <time>2022-08-13T06:52:20Z</time>
      </trkpt>
      <trkpt lat="47.558459938" lon="11.098056631">
        <ele>1114.3</ele>
        <time>2022-08-13T06:52:34Z</time>
      </trkpt>
      <trkpt lat="47.558356337" lon="11.097946996">
        <ele>1120.1</ele>
        <time>2022-08-13T06:53:05Z</time>
      </trkpt>
      <trkpt lat="47.558355918" lon="11.097804084">
        <ele>1123.4</ele>
        <time>2022-08-13T06:53:20Z</time>
      </trkpt>
      <trkpt lat="47.558296407" lon="11.097674249">
        <ele>1125.8</ele>
        <time>2022-08-13T06:53:36Z</time>
      </trkpt>
      <trkpt lat="47.558289701" lon="11.097570984">
        <ele>1128.2</ele>
        <time>2022-08-13T06:53:54Z</time>
      </trkpt>
      <trkpt lat="47.558235470" lon="11.097319024">
        <ele>1134.5</ele>
        <time>2022-08-13T06:54:33Z</time>
      </trkpt>
      <trkpt lat="47.558216611" lon="11.097148536">
        <ele>1137.4</ele>
        <time>2022-08-13T06:54:55Z</time>
      </trkpt>
      <trkpt lat="47.558230190" lon="11.097067231">
        <ele>1140.3</ele>
        <time>2022-08-13T06:55:11Z</time>
      </trkpt>
      <trkpt lat="47.558168918" lon="11.096549900">
        <ele>1148.9</ele>
        <time>2022-08-13T06:56:14Z</time>
      </trkpt>
      <trkpt lat="47.558094235" lon="11.096243542">
        <ele>1154.7</ele>
        <time>2022-08-13T06:56:56Z</time>
      </trkpt>
      <trkpt lat="47.558034053" lon="11.096080011">
        <ele>1160.0</ele>
        <time>2022-08-13T06:57:33Z</time>
      </trkpt>
      <trkpt lat="47.557967752" lon="11.096023433">
        <ele>1162.8</ele>
        <time>2022-08-13T06:57:51Z</time>
      </trkpt>
      <trkpt lat="47.557860799" lon="11.095813299">
        <ele>1167.2</ele>
        <time>2022-08-13T06:58:22Z</time>
      </trkpt>
      <trkpt lat="47.557850992" lon="11.095675500">
        <ele>1169.6</ele>
        <time>2022-08-13T06:58:37Z</time>
      </trkpt>
      <trkpt lat="47.557702381" lon="11.095552538">
        <ele>1175.3</ele>
        <time>2022-08-13T06:59:11Z</time>
      </trkpt>
      <trkpt lat="47.557713110" lon="11.095453380">
        <ele>1177.8</ele>
        <time>2022-08-13T06:59:27Z</time>
      </trkpt>
      <trkpt lat="47.557685198" lon="11.095297560">
        <ele>1183.5</ele>
        <time>2022-08-13T07:00:03Z</time>
      </trkpt>
      <trkpt lat="47.557635577" lon="11.095135789">
        <ele>1188.3</ele>
        <time>2022-08-13T07:00:35Z</time>
      </trkpt>
      <trkpt lat="47.557654772" lon="11.095055742">
        <ele>1191.2</ele>
        <time>2022-08-13T07:00:52Z</time>
      </trkpt>
      <trkpt lat="47.557615461" lon="11.095001008">
        <ele>1193.6</ele>
        <time>2022-08-13T07:01:06Z</time>
      </trkpt>
      <trkpt lat="47.557622334" lon="11.094936300">
        <ele>1196.0</ele>
        <time>2022-08-13T07:01:19Z</time>
      </trkpt>
      <trkpt lat="47.557699447" lon="11.094819289">
        <ele>1201.3</ele>
        <time>2022-08-13T07:01:51Z</time>
      </trkpt>
      <trkpt lat="47.557694670" lon="11.094780229">
        <ele>1203.7</ele>
        <time>2022-08-13T07:02:08Z</time>
      </trkpt>
      <trkpt lat="47.557721408" lon="11.094661877">
        <ele>1209.0</ele>
        <time>2022-08-13T07:02:37Z</time>
      </trkpt>
      <trkpt lat="47.557652676" lon="11.094597755">
        <ele>1211.4</ele>
        <time>2022-08-13T07:02:53Z</time>
      </trkpt>
      <trkpt lat="47.557582101" lon="11.094246889">
        <ele>1218.1</ele>
        <time>2022-08-13T07:03:44Z</time>
      </trkpt>
      <trkpt lat="47.557486966" lon="11.094033569">
        <ele>1223.4</ele>
        <time>2022-08-13T07:04:20Z</time>
      </trkpt>
      <trkpt lat="47.557465341" lon="11.093926113">
        <ele>1225.3</ele>
        <time>2022-08-13T07:04:36Z</time>
      </trkpt>
      <trkpt lat="47.557475735" lon="11.093859225">
        <ele>1228.7</ele>
        <time>2022-08-13T07:04:51Z</time>
      </trkpt>
      <trkpt lat="47.557514962" lon="11.093832906">
        <ele>1231.1</ele>
        <time>2022-08-13T07:05:05Z</time>
      </trkpt>
      <trkpt lat="47.557572629" lon="11.093868362">
        <ele>1233.5</ele>
        <time>2022-08-13T07:05:19Z</time>
      </trkpt>
      <trkpt lat="47.557621244" lon="11.093849502">
        <ele>1236.4</ele>
        <time>2022-08-13T07:05:37Z</time>
      </trkpt>
      <trkpt lat="47.557656113" lon="11.093809772">
        <ele>1239.8</ele>
        <time>2022-08-13T07:05:54Z</time>
      </trkpt>
      <trkpt lat="47.557722246" lon="11.093808431">
        <ele>1242.2</ele>
        <time>2022-08-13T07:06:11Z</time>
      </trkpt>
      <trkpt lat="47.557787960" lon="11.093841288">
        <ele>1245.5</ele>
        <time>2022-08-13T07:06:29Z</time>
      </trkpt>
      <trkpt lat="47.557899943" lon="11.093786052">
        <ele>1250.3</ele>
        <time>2022-08-13T07:07:00Z</time>
      </trkpt>
      <trkpt lat="47.557844538" lon="11.093634758">
        <ele>1254.7</ele>
        <time>2022-08-13T07:07:29Z</time>
      </trkpt>
      <trkpt lat="47.557902290" lon="11.093633669">
        <ele>1256.6</ele>
        <time>2022-08-13T07:07:41Z</time>
      </trkpt>
      <trkpt lat="47.557933386" lon="11.093602404">
        <ele>1258.0</ele>
        <time>2022-08-13T07:07:51Z</time>
      </trkpt>
      <trkpt lat="47.557913940" lon="11.093478100">
        <ele>1260.9</ele>
        <time>2022-08-13T07:08:09Z</time>
      </trkpt>
      <trkpt lat="47.557948725" lon="11.093411967">
        <ele>1263.3</ele>
        <time>2022-08-13T07:08:25Z</time>
      </trkpt>
      <trkpt lat="47.557966411" lon="11.093214825">
        <ele>1268.1</ele>
        <time>2022-08-13T07:08:56Z</time>
      </trkpt>
      <trkpt lat="47.557933386" lon="11.093139807">
        <ele>1270.5</ele>
        <time>2022-08-13T07:09:11Z</time>
      </trkpt>
      <trkpt lat="47.557949815" lon="11.093088677">
        <ele>1272.4</ele>
        <time>2022-08-13T07:09:24Z</time>
      </trkpt>
      <trkpt lat="47.557929950" lon="11.093028495">
        <ele>1274.8</ele>
        <time>2022-08-13T07:09:40Z</time>
      </trkpt>
      <trkpt lat="47.557820734" lon="11.092881057">
        <ele>1280.1</ele>
        <time>2022-08-13T07:10:12Z</time>
      </trkpt>
      <trkpt lat="47.557837414" lon="11.092814170">
        <ele>1282.5</ele>
        <time>2022-08-13T07:10:26Z</time>
      </trkpt>
      <trkpt lat="47.557813777" lon="11.092756335">
        <ele>1285.4</ele>
        <time>2022-08-13T07:10:43Z</time>
      </trkpt>
      <trkpt lat="47.557798438" lon="11.092530694">
        <ele>1293.6</ele>
        <time>2022-08-13T07:11:28Z</time>
      </trkpt>
      <trkpt lat="47.557986528" lon="11.092415526">
        <ele>1298.4</ele>
        <time>2022-08-13T07:12:01Z</time>
      </trkpt>
      <trkpt lat="47.558060791" lon="11.092282673">
        <ele>1300.8</ele>
        <time>2022-08-13T07:12:22Z</time>
      </trkpt>
      <trkpt lat="47.558065820" lon="11.092202626">
        <ele>1303.7</ele>
        <time>2022-08-13T07:12:37Z</time>
      </trkpt>
      <trkpt lat="47.558098929" lon="11.092128614">
        <ele>1306.6</ele>
        <time>2022-08-13T07:12:51Z</time>
      </trkpt>
      <trkpt lat="47.558104042" lon="11.092043789">
        <ele>1309.0</ele>
        <time>2022-08-13T07:13:08Z</time>
      </trkpt>
      <trkpt lat="47.558205798" lon="11.091804653">
        <ele>1317.6</ele>
        <time>2022-08-13T07:13:56Z</time>
      </trkpt>
      <trkpt lat="47.558219042" lon="11.091672890">
        <ele>1323.4</ele>
        <time>2022-08-13T07:14:27Z</time>
      </trkpt>
      <trkpt lat="47.558208145" lon="11.091475077">
        <ele>1328.2</ele>
        <time>2022-08-13T07:15:01Z</time>
      </trkpt>
      <trkpt lat="47.558182580" lon="11.091418751">
        <ele>1331.1</ele>
        <time>2022-08-13T07:15:16Z</time>
      </trkpt>
      <trkpt lat="47.558202362" lon="11.091296207">
        <ele>1334.0</ele>
        <time>2022-08-13T07:15:35Z</time>
      </trkpt>
      <trkpt lat="47.558166822" lon="11.091238288">
        <ele>1336.4</ele>
        <time>2022-08-13T07:15:48Z</time>
      </trkpt>
      <trkpt lat="47.558043692" lon="11.091311630">
        <ele>1341.2</ele>
        <time>2022-08-13T07:16:18Z</time>
      </trkpt>
      <trkpt lat="47.557990719" lon="11.091315402">
        <ele>1343.6</ele>
        <time>2022-08-13T07:16:35Z</time>
      </trkpt>
      <trkpt lat="47.557925843" lon="11.091370974">
        <ele>1346.5</ele>
        <time>2022-08-13T07:16:51Z</time>
      </trkpt>
      <trkpt lat="47.557893656" lon="11.091283718">
        <ele>1348.4</ele>
        <time>2022-08-13T07:17:07Z</time>
      </trkpt>
      <trkpt lat="47.557833977" lon="11.090978365">
        <ele>1356.1</ele>
        <time>2022-08-13T07:17:55Z</time>
      </trkpt>
      <trkpt lat="47.557837833" lon="11.090890775">
        <ele>1359.0</ele>
        <time>2022-08-13T07:18:10Z</time>
      </trkpt>
      <trkpt lat="47.557820482" lon="11.090773763">
        <ele>1360.9</ele>
        <time>2022-08-13T07:18:23Z</time>
      </trkpt>
      <trkpt lat="47.557755522" lon="11.090548625">
        <ele>1365.2</ele>
        <time>2022-08-13T07:18:53Z</time>
      </trkpt>
      <trkpt lat="47.557669356" lon="11.090136403">
        <ele>1370.5</ele>
        <time>2022-08-13T07:19:40Z</time>
      </trkpt>
      <trkpt lat="47.557655862" lon="11.090008915">
        <ele>1372.9</ele>
        <time>2022-08-13T07:19:56Z</time>
      </trkpt>
      <trkpt lat="47.557624932" lon="11.089959797">
        <ele>1374.3</ele>
        <time>2022-08-13T07:20:05Z</time>
      </trkpt>
      <trkpt lat="47.557552597" lon="11.089472389">
        <ele>1379.2</ele>
        <time>2022-08-13T07:20:52Z</time>
      </trkpt>
      <trkpt lat="47.557495767" lon="11.089342637">
        <ele>1381.5</ele>
        <time>2022-08-13T07:21:09Z</time>
      </trkpt>
      <trkpt lat="47.557461234" lon="11.089173658">
        <ele>1382.5</ele>
        <time>2022-08-13T07:21:23Z</time>
      </trkpt>
      <trkpt lat="47.557395687" lon="11.089044660">
        <ele>1383.5</ele>
        <time>2022-08-13T07:21:38Z</time>
      </trkpt>
      <trkpt lat="47.557365596" lon="11.088908454">
        <ele>1384.4</ele>
        <time>2022-08-13T07:21:51Z</time>
      </trkpt>
      <trkpt lat="47.557318574" lon="11.088015865">
        <ele>1398.4</ele>
        <time>2022-08-13T07:23:29Z</time>
      </trkpt>
      <trkpt lat="47.557161329" lon="11.087837163">
        <ele>1400.3</ele>
        <time>2022-08-13T07:23:50Z</time>
      </trkpt>
      <trkpt lat="47.557131322" lon="11.087670866">
        <ele>1402.2</ele>
        <time>2022-08-13T07:24:07Z</time>
      </trkpt>
      <trkpt lat="47.557152277" lon="11.087585203">
        <ele>1404.1</ele>
        <time>2022-08-13T07:24:20Z</time>
      </trkpt>
      <trkpt lat="47.557258727" lon="11.087413877">
        <ele>1409.9</ele>
        <time>2022-08-13T07:24:51Z</time>
      </trkpt>
      <trkpt lat="47.557276413" lon="11.087322179">
        <ele>1412.8</ele>
        <time>2022-08-13T07:25:09Z</time>
      </trkpt>
      <trkpt lat="47.557186056" lon="11.087099304">
        <ele>1419.5</ele>
        <time>2022-08-13T07:25:49Z</time>
      </trkpt>
      <trkpt lat="47.557095364" lon="11.086832425">
        <ele>1425.3</ele>
        <time>2022-08-13T07:26:26Z</time>
      </trkpt>
      <trkpt lat="47.556997463" lon="11.086624050">
        <ele>1431.1</ele>
        <time>2022-08-13T07:27:01Z</time>
      </trkpt>
      <trkpt lat="47.556917081" lon="11.086514834">
        <ele>1433.5</ele>
        <time>2022-08-13T07:27:16Z</time>
      </trkpt>
      <trkpt lat="47.556865532" lon="11.086497065">
        <ele>1434.4</ele>
        <time>2022-08-13T07:27:23Z</time>
      </trkpt>
      <trkpt lat="47.556822700" lon="11.086375192">
        <ele>1435.4</ele>
        <time>2022-08-13T07:27:36Z</time>
      </trkpt>
      <trkpt lat="47.556808786" lon="11.086207135">
        <ele>1438.3</ele>
        <time>2022-08-13T07:27:56Z</time>
      </trkpt>
      <trkpt lat="47.556760171" lon="11.086155837">
        <ele>1440.2</ele>
        <time>2022-08-13T07:28:09Z</time>
      </trkpt>
      <trkpt lat="47.556772744" lon="11.086025666">
        <ele>1442.6</ele>
        <time>2022-08-13T07:28:27Z</time>
      </trkpt>
      <trkpt lat="47.556805182" lon="11.085906560">
        <ele>1445.5</ele>
        <time>2022-08-13T07:28:44Z</time>
      </trkpt>
      <trkpt lat="47.556867125" lon="11.085889963">
        <ele>1447.9</ele>
        <time>2022-08-13T07:28:59Z</time>
      </trkpt>
      <trkpt lat="47.556898138" lon="11.085764654">
        <ele>1450.8</ele>
        <time>2022-08-13T07:29:16Z</time>
      </trkpt>
      <trkpt lat="47.556947088" lon="11.085732384">
        <ele>1452.7</ele>
        <time>2022-08-13T07:29:29Z</time>
      </trkpt>
      <trkpt lat="47.556800153" lon="11.085475311">
        <ele>1461.3</ele>
        <time>2022-08-13T07:30:27Z</time>
      </trkpt>
      <trkpt lat="47.556737391" lon="11.085303036">
        <ele>1484.3</ele>
        <time>2022-08-13T07:31:06Z</time>
      </trkpt>
      <trkpt lat="47.556844811" lon="11.085333886">
        <ele>1479.7</ele>
      </trkpt>
      <trkpt lat="47.556840893" lon="11.085054578">
        <ele>1484.9</ele>
      </trkpt>
      <trkpt lat="47.556818024" lon="11.084827690">
        <ele>1488.1</ele>
      </trkpt>
      <trkpt lat="47.556776687" lon="11.084626655">
        <ele>1491.9</ele>
      </trkpt>
      <trkpt lat="47.556761360" lon="11.084479825">
        <ele>1491.5</ele>
      </trkpt>
      <trkpt lat="47.556742318" lon="11.084382813">
        <ele>1499.8</ele>
        <time>2022-08-13T07:37:05Z</time>
      </trkpt>
      <trkpt lat="47.556621535" lon="11.084216014">
        <ele>1496.4</ele>
        <time>2022-08-13T07:46:59Z</time>
      </trkpt>
      <trkpt lat="47.556619020" lon="11.084095733">
        <ele>1497.4</ele>
        <time>2022-08-13T07:47:27Z</time>
      </trkpt>
      <trkpt lat="47.556567891" lon="11.083906721">
        <ele>1496.4</ele>
        <time>2022-08-13T07:47:43Z</time>
      </trkpt>
      <trkpt lat="47.556501674" lon="11.083757021">
        <ele>1494.0</ele>
        <time>2022-08-13T07:48:00Z</time>
      </trkpt>
      <trkpt lat="47.556435876" lon="11.083687451">
        <ele>1492.1</ele>
        <time>2022-08-13T07:48:10Z</time>
      </trkpt>
      <trkpt lat="47.556429170" lon="11.083535738">
        <ele>1490.7</ele>
        <time>2022-08-13T07:48:20Z</time>
      </trkpt>
      <trkpt lat="47.556330599" lon="11.083196187">
        <ele>1490.2</ele>
        <time>2022-08-13T07:48:49Z</time>
      </trkpt>
      <trkpt lat="47.556256838" lon="11.082993597">
        <ele>1491.1</ele>
        <time>2022-08-13T07:49:05Z</time>
      </trkpt>
      <trkpt lat="47.556150807" lon="11.082780697">
        <ele>1490.7</ele>
        <time>2022-08-13T07:49:35Z</time>
      </trkpt>
      <trkpt lat="47.556126332" lon="11.082545919">
        <ele>1489.2</ele>
        <time>2022-08-13T07:49:51Z</time>
      </trkpt>
      <trkpt lat="47.556042597" lon="11.082276944">
        <ele>1486.3</ele>
        <time>2022-08-13T07:50:08Z</time>
      </trkpt>
      <trkpt lat="47.556000603" lon="11.082051806">
        <ele>1484.4</ele>
        <time>2022-08-13T07:50:21Z</time>
      </trkpt>
      <trkpt lat="47.556009572" lon="11.081741173">
        <ele>1482.5</ele>
        <time>2022-08-13T07:50:39Z</time>
      </trkpt>
      <trkpt lat="47.555892477" lon="11.081540259">
        <ele>1482.0</ele>
        <time>2022-08-13T07:50:56Z</time>
      </trkpt>
      <trkpt lat="47.555877641" lon="11.081434395">
        <ele>1481.5</ele>
        <time>2022-08-13T07:51:03Z</time>
      </trkpt>
      <trkpt lat="47.555956347" lon="11.081118146">
        <ele>1480.6</ele>
        <time>2022-08-13T07:51:28Z</time>
      </trkpt>
      <trkpt lat="47.555959197" lon="11.081023263">
        <ele>1479.1</ele>
        <time>2022-08-13T07:51:37Z</time>
      </trkpt>
      <trkpt lat="47.555899434" lon="11.080765603">
        <ele>1478.7</ele>
        <time>2022-08-13T07:51:51Z</time>
      </trkpt>
      <trkpt lat="47.555905888" lon="11.080475673">
        <ele>1479.1</ele>
        <time>2022-08-13T07:52:07Z</time>
      </trkpt>
      <trkpt lat="47.555846041" lon="11.080180462">
        <ele>1485.4</ele>
        <time>2022-08-13T07:52:37Z</time>
      </trkpt>
      <trkpt lat="47.555832462" lon="11.080005700">
        <ele>1488.3</ele>
        <time>2022-08-13T07:52:52Z</time>
      </trkpt>
      <trkpt lat="47.555808155" lon="11.079894556">
        <ele>1491.6</ele>
        <time>2022-08-13T07:53:06Z</time>
      </trkpt>
      <trkpt lat="47.555845622" lon="11.079753488">
        <ele>1494.0</ele>
        <time>2022-08-13T07:53:23Z</time>
      </trkpt>
      <trkpt lat="47.555840090" lon="11.079531452">
        <ele>1497.4</ele>
        <time>2022-08-13T07:53:50Z</time>
      </trkpt>
      <trkpt lat="47.555893818" lon="11.079351241">
        <ele>1498.8</ele>
        <time>2022-08-13T07:54:08Z</time>
      </trkpt>
      <trkpt lat="47.555923490" lon="11.079009846">
        <ele>1503.6</ele>
        <time>2022-08-13T07:54:43Z</time>
      </trkpt>
      <trkpt lat="47.555854507" lon="11.078539034">
        <ele>1510.4</ele>
        <time>2022-08-13T07:55:29Z</time>
      </trkpt>
      <trkpt lat="47.555892309" lon="11.078540627">
        <ele>1512.3</ele>
        <time>2022-08-13T07:55:42Z</time>
      </trkpt>
      <trkpt lat="47.555897925" lon="11.078439122">
        <ele>1514.7</ele>
        <time>2022-08-13T07:55:56Z</time>
      </trkpt>
      <trkpt lat="47.555896500" lon="11.078268299">
        <ele>1517.6</ele>
        <time>2022-08-13T07:56:14Z</time>
      </trkpt>
      <trkpt lat="47.555878647" lon="11.078141313">
        <ele>1520.0</ele>
        <time>2022-08-13T07:56:32Z</time>
      </trkpt>
      <trkpt lat="47.555901697" lon="11.077937465">
        <ele>1526.2</ele>
        <time>2022-08-13T07:57:02Z</time>
      </trkpt>
      <trkpt lat="47.555921646" lon="11.077876445">
        <ele>1528.2</ele>
        <time>2022-08-13T07:57:16Z</time>
      </trkpt>
      <trkpt lat="47.555900440" lon="11.077772342">
        <ele>1529.1</ele>
        <time>2022-08-13T07:57:31Z</time>
      </trkpt>
      <trkpt lat="47.555897757" lon="11.077578468">
        <ele>1533.4</ele>
        <time>2022-08-13T07:58:03Z</time>
      </trkpt>
      <trkpt lat="47.555904966" lon="11.077494398">
        <ele>1536.3</ele>
        <time>2022-08-13T07:58:16Z</time>
      </trkpt>
      <trkpt lat="47.555861799" lon="11.077255011">
        <ele>1541.6</ele>
        <time>2022-08-13T07:58:51Z</time>
      </trkpt>
      <trkpt lat="47.555866996" lon="11.077163816">
        <ele>1544.5</ele>
        <time>2022-08-13T07:59:09Z</time>
      </trkpt>
      <trkpt lat="47.555821985" lon="11.076943204">
        <ele>1552.2</ele>
        <time>2022-08-13T07:59:56Z</time>
      </trkpt>
      <trkpt lat="47.555790888" lon="11.076878328">
        <ele>1554.6</ele>
        <time>2022-08-13T08:00:11Z</time>
      </trkpt>
      <trkpt lat="47.555797845" lon="11.076782187">
        <ele>1557.0</ele>
        <time>2022-08-13T08:00:27Z</time>
      </trkpt>
      <trkpt lat="47.555753253" lon="11.076699290">
        <ele>1559.9</ele>
        <time>2022-08-13T08:00:44Z</time>
      </trkpt>
      <trkpt lat="47.555758785" lon="11.076630978">
        <ele>1561.8</ele>
        <time>2022-08-13T08:01:00Z</time>
      </trkpt>
      <trkpt lat="47.555713020" lon="11.076572891">
        <ele>1565.2</ele>
        <time>2022-08-13T08:01:18Z</time>
      </trkpt>
      <trkpt lat="47.555704554" lon="11.076511201">
        <ele>1567.1</ele>
        <time>2022-08-13T08:01:32Z</time>
      </trkpt>
      <trkpt lat="47.555674883" lon="11.076457556">
        <ele>1569.5</ele>
        <time>2022-08-13T08:01:47Z</time>
      </trkpt>
      <trkpt lat="47.555688964" lon="11.076388322">
        <ele>1571.9</ele>
        <time>2022-08-13T08:02:02Z</time>
      </trkpt>
      <trkpt lat="47.555656526" lon="11.076301737">
        <ele>1574.3</ele>
        <time>2022-08-13T08:02:17Z</time>
      </trkpt>
      <trkpt lat="47.555649066" lon="11.076224791">
        <ele>1577.2</ele>
        <time>2022-08-13T08:02:33Z</time>
      </trkpt>
      <trkpt lat="47.555660047" lon="11.076159915">
        <ele>1579.6</ele>
        <time>2022-08-13T08:02:46Z</time>
      </trkpt>
      <trkpt lat="47.555640265" lon="11.076099062">
        <ele>1581.0</ele>
        <time>2022-08-13T08:02:58Z</time>
      </trkpt>
      <trkpt lat="47.555659963" lon="11.075992025">
        <ele>1583.4</ele>
        <time>2022-08-13T08:03:15Z</time>
      </trkpt>
      <trkpt lat="47.555629788" lon="11.075872919">
        <ele>1586.8</ele>
        <time>2022-08-13T08:03:34Z</time>
      </trkpt>
      <trkpt lat="47.555624507" lon="11.075704945">
        <ele>1590.6</ele>
        <time>2022-08-13T08:04:01Z</time>
      </trkpt>
      <trkpt lat="47.555563152" lon="11.075456338">
        <ele>1596.4</ele>
        <time>2022-08-13T08:04:36Z</time>
      </trkpt>
      <trkpt lat="47.555557368" lon="11.075332370">
        <ele>1598.3</ele>
        <time>2022-08-13T08:04:51Z</time>
      </trkpt>
      <trkpt lat="47.555492157" lon="11.074948730">
        <ele>1606.0</ele>
        <time>2022-08-13T08:05:43Z</time>
      </trkpt>
      <trkpt lat="47.555453014" lon="11.074891146">
        <ele>1608.9</ele>
        <time>2022-08-13T08:06:00Z</time>
      </trkpt>
      <trkpt lat="47.555457624" lon="11.074834904">
        <ele>1610.8</ele>
        <time>2022-08-13T08:06:14Z</time>
      </trkpt>
      <trkpt lat="47.555489223" lon="11.074780924">
        <ele>1613.2</ele>
        <time>2022-08-13T08:06:29Z</time>
      </trkpt>
      <trkpt lat="47.555494588" lon="11.074715210">
        <ele>1615.2</ele>
        <time>2022-08-13T08:06:41Z</time>
      </trkpt>
      <trkpt lat="47.555476315" lon="11.074661063">
        <ele>1616.6</ele>
        <time>2022-08-13T08:06:54Z</time>
      </trkpt>
      <trkpt lat="47.555442117" lon="11.074271472">
        <ele>1624.8</ele>
        <time>2022-08-13T08:08:04Z</time>
      </trkpt>
      <trkpt lat="47.555462988" lon="11.074188575">
        <ele>1627.2</ele>
        <time>2022-08-13T08:08:18Z</time>
      </trkpt>
      <trkpt lat="47.555451253" lon="11.073558675">
        <ele>1643.5</ele>
        <time>2022-08-13T08:10:04Z</time>
      </trkpt>
      <trkpt lat="47.555495594" lon="11.073314762">
        <ele>1648.8</ele>
        <time>2022-08-13T08:10:38Z</time>
      </trkpt>
      <trkpt lat="47.555477740" lon="11.073214598">
        <ele>1651.2</ele>
        <time>2022-08-13T08:10:55Z</time>
      </trkpt>
      <trkpt lat="47.555539347" lon="11.072898852">
        <ele>1657.5</ele>
        <time>2022-08-13T08:11:46Z</time>
      </trkpt>
      <trkpt lat="47.555544376" lon="11.072768262">
        <ele>1659.8</ele>
        <time>2022-08-13T08:12:03Z</time>
      </trkpt>
      <trkpt lat="47.555530211" lon="11.072680755">
        <ele>1662.7</ele>
        <time>2022-08-13T08:12:19Z</time>
      </trkpt>
      <trkpt lat="47.555567008" lon="11.072458550">
        <ele>1667.1</ele>
        <time>2022-08-13T08:12:50Z</time>
      </trkpt>
      <trkpt lat="47.555651162" lon="11.072174907">
        <ele>1675.7</ele>
        <time>2022-08-13T08:13:42Z</time>
      </trkpt>
      <trkpt lat="47.555673793" lon="11.071915403">
        <ele>1682.0</ele>
        <time>2022-08-13T08:14:31Z</time>
      </trkpt>
      <trkpt lat="47.555738166" lon="11.071537128">
        <ele>1694.0</ele>
        <time>2022-08-13T08:15:37Z</time>
      </trkpt>
      <trkpt lat="47.555801366" lon="11.071429672">
        <ele>1698.8</ele>
        <time>2022-08-13T08:16:08Z</time>
      </trkpt>
      <trkpt lat="47.555850735" lon="11.071394300">
        <ele>1702.2</ele>
        <time>2022-08-13T08:16:26Z</time>
      </trkpt>
      <trkpt lat="47.555918209" lon="11.071451129">
        <ele>1701.7</ele>
        <time>2022-08-13T08:23:10Z</time>
      </trkpt>
      <trkpt lat="47.555838078" lon="11.071356246">
        <ele>1701.7</ele>
        <time>2022-08-13T08:29:20Z</time>
      </trkpt>
      <trkpt lat="47.555808825" lon="11.071266560">
        <ele>1701.7</ele>
        <time>2022-08-13T08:29:32Z</time>
      </trkpt>
      <trkpt lat="47.555803796" lon="11.071195984">
        <ele>1704.5</ele>
        <time>2022-08-13T08:29:48Z</time>
      </trkpt>
      <trkpt lat="47.555734059" lon="11.070957184">
        <ele>1702.6</ele>
        <time>2022-08-13T08:30:05Z</time>
      </trkpt>
      <trkpt lat="47.555702291" lon="11.070766747">
        <ele>1702.2</ele>
        <time>2022-08-13T08:30:23Z</time>
      </trkpt>
      <trkpt lat="47.555652503" lon="11.070392914">
        <ele>1701.7</ele>
        <time>2022-08-13T08:30:54Z</time>
      </trkpt>
      <trkpt lat="47.555668596" lon="11.070254194">
        <ele>1704.5</ele>
        <time>2022-08-13T08:31:09Z</time>
      </trkpt>
      <trkpt lat="47.555596512" lon="11.070011202">
        <ele>1704.5</ele>
        <time>2022-08-13T08:31:31Z</time>
      </trkpt>
      <trkpt lat="47.555522416" lon="11.069857143">
        <ele>1707.0</ele>
        <time>2022-08-13T08:31:48Z</time>
      </trkpt>
      <trkpt lat="47.555488888" lon="11.069453303">
        <ele>1709.8</ele>
        <time>2022-08-13T08:32:22Z</time>
      </trkpt>
      <trkpt lat="47.555471538" lon="11.069377279">
        <ele>1710.8</ele>
        <time>2022-08-13T08:32:38Z</time>
      </trkpt>
      <trkpt lat="47.555496013" lon="11.069109058">
        <ele>1709.4</ele>
        <time>2022-08-13T08:33:00Z</time>
      </trkpt>
      <trkpt lat="47.555489307" lon="11.068874951">
        <ele>1710.8</ele>
        <time>2022-08-13T08:33:17Z</time>
      </trkpt>
      <trkpt lat="47.555433651" lon="11.068573035">
        <ele>1711.8</ele>
        <time>2022-08-13T08:33:38Z</time>
      </trkpt>
      <trkpt lat="47.555476651" lon="11.068183696">
        <ele>1713.2</ele>
        <time>2022-08-13T08:34:06Z</time>
      </trkpt>
      <trkpt lat="47.555457791" lon="11.067971215">
        <ele>1715.1</ele>
        <time>2022-08-13T08:34:23Z</time>
      </trkpt>
      <trkpt lat="47.555508669" lon="11.067815646">
        <ele>1717.5</ele>
        <time>2022-08-13T08:34:40Z</time>
      </trkpt>
      <trkpt lat="47.555486625" lon="11.067619342">
        <ele>1720.4</ele>
        <time>2022-08-13T08:35:00Z</time>
      </trkpt>
      <trkpt lat="47.555439603" lon="11.067504007">
        <ele>1722.8</ele>
        <time>2022-08-13T08:35:14Z</time>
      </trkpt>
      <trkpt lat="47.555417810" lon="11.067355229">
        <ele>1724.3</ele>
        <time>2022-08-13T08:35:28Z</time>
      </trkpt>
      <trkpt lat="47.555388641" lon="11.067271493">
        <ele>1725.2</ele>
        <time>2022-08-13T08:35:36Z</time>
      </trkpt>
      <trkpt lat="47.555317813" lon="11.067174766">
        <ele>1725.7</ele>
        <time>2022-08-13T08:35:47Z</time>
      </trkpt>
      <trkpt lat="47.555295601" lon="11.067117183">
        <ele>1724.7</ele>
        <time>2022-08-13T08:35:52Z</time>
      </trkpt>
      <trkpt lat="47.555231648" lon="11.067072423">
        <ele>1723.8</ele>
        <time>2022-08-13T08:36:00Z</time>
      </trkpt>
      <trkpt lat="47.555111032" lon="11.066906126">
        <ele>1720.4</ele>
        <time>2022-08-13T08:36:20Z</time>
      </trkpt>
      <trkpt lat="47.554753041" lon="11.066287961">
        <ele>1713.2</ele>
        <time>2022-08-13T08:37:24Z</time>
      </trkpt>
      <trkpt lat="47.554596048" lon="11.066061985">
        <ele>1709.8</ele>
        <time>2022-08-13T08:37:48Z</time>
      </trkpt>
      <trkpt lat="47.554326234" lon="11.065717405">
        <ele>1703.1</ele>
        <time>2022-08-13T08:38:34Z</time>
      </trkpt>
      <trkpt lat="47.554044519" lon="11.065536188">
        <ele>1693.5</ele>
        <time>2022-08-13T08:39:15Z</time>
      </trkpt>
      <trkpt lat="47.553813597" lon="11.065223040">
        <ele>1688.7</ele>
        <time>2022-08-13T08:39:50Z</time>
      </trkpt>
      <trkpt lat="47.553722151" lon="11.065054564">
        <ele>1685.8</ele>
        <time>2022-08-13T08:40:10Z</time>
      </trkpt>
      <trkpt lat="47.553658364" lon="11.064899163">
        <ele>1687.2</ele>
        <time>2022-08-13T08:40:30Z</time>
      </trkpt>
      <trkpt lat="47.553558368" lon="11.064549638">
        <ele>1696.9</ele>
        <time>2022-08-13T08:41:33Z</time>
      </trkpt>
      <trkpt lat="47.553577814" lon="11.064473027">
        <ele>1700.2</ele>
        <time>2022-08-13T08:42:01Z</time>
      </trkpt>
      <trkpt lat="47.553565158" lon="11.064416869">
        <ele>1702.6</ele>
        <time>2022-08-13T08:42:14Z</time>
      </trkpt>
      <trkpt lat="47.553482847" lon="11.064296588">
        <ele>1705.0</ele>
        <time>2022-08-13T08:42:37Z</time>
      </trkpt>
      <trkpt lat="47.553468682" lon="11.064220481">
        <ele>1706.5</ele>
        <time>2022-08-13T08:42:51Z</time>
      </trkpt>
      <trkpt lat="47.553368937" lon="11.063966258">
        <ele>1711.8</ele>
        <time>2022-08-13T08:43:43Z</time>
      </trkpt>
      <trkpt lat="47.553342618" lon="11.063789567">
        <ele>1716.1</ele>
        <time>2022-08-13T08:44:15Z</time>
      </trkpt>
      <trkpt lat="47.553274725" lon="11.063637184">
        <ele>1717.5</ele>
        <time>2022-08-13T08:44:43Z</time>
      </trkpt>
      <trkpt lat="47.553239269" lon="11.063410705">
        <ele>1722.8</ele>
        <time>2022-08-13T08:45:30Z</time>
      </trkpt>
      <trkpt lat="47.553140614" lon="11.063240552">
        <ele>1722.3</ele>
        <time>2022-08-13T08:46:02Z</time>
      </trkpt>
      <trkpt lat="47.553102644" lon="11.063147094">
        <ele>1723.3</ele>
        <time>2022-08-13T08:46:18Z</time>
      </trkpt>
      <trkpt lat="47.553062495" lon="11.062976522">
        <ele>1726.7</ele>
        <time>2022-08-13T08:46:45Z</time>
      </trkpt>
      <trkpt lat="47.553006336" lon="11.062901085">
        <ele>1726.2</ele>
        <time>2022-08-13T08:46:58Z</time>
      </trkpt>
      <trkpt lat="47.552971132" lon="11.062795641">
        <ele>1726.7</ele>
        <time>2022-08-13T08:47:13Z</time>
      </trkpt>
      <trkpt lat="47.552955877" lon="11.062706206">
        <ele>1728.1</ele>
        <time>2022-08-13T08:47:28Z</time>
      </trkpt>
      <trkpt lat="47.552980688" lon="11.062421808">
        <ele>1736.3</ele>
        <time>2022-08-13T08:48:35Z</time>
      </trkpt>
      <trkpt lat="47.552957050" lon="11.062258026">
        <ele>1737.7</ele>
        <time>2022-08-13T08:48:51Z</time>
      </trkpt>
      <trkpt lat="47.552826712" lon="11.062050322">
        <ele>1742.5</ele>
        <time>2022-08-13T08:49:40Z</time>
      </trkpt>
      <trkpt lat="47.552758483" lon="11.062010257">
        <ele>1744.0</ele>
        <time>2022-08-13T08:49:55Z</time>
      </trkpt>
      <trkpt lat="47.552710874" lon="11.061937083">
        <ele>1746.4</ele>
        <time>2022-08-13T08:50:14Z</time>
      </trkpt>
      <trkpt lat="47.552756723" lon="11.061918978">
        <ele>1748.3</ele>
        <time>2022-08-13T08:50:30Z</time>
      </trkpt>
      <trkpt lat="47.552764937" lon="11.061870865">
        <ele>1750.2</ele>
        <time>2022-08-13T08:50:46Z</time>
      </trkpt>
      <trkpt lat="47.552786311" lon="11.061846642">
        <ele>1751.7</ele>
        <time>2022-08-13T08:51:00Z</time>
      </trkpt>
      <trkpt lat="47.552788993" lon="11.061701300">
        <ele>1756.5</ele>
        <time>2022-08-13T08:51:33Z</time>
      </trkpt>
      <trkpt lat="47.552695032" lon="11.061605411">
        <ele>1762.2</ele>
        <time>2022-08-13T08:52:26Z</time>
      </trkpt>
      <trkpt lat="47.552635269" lon="11.061514970">
        <ele>1762.2</ele>
        <time>2022-08-13T08:52:42Z</time>
      </trkpt>
      <trkpt lat="47.552621523" lon="11.061439114">
        <ele>1763.2</ele>
        <time>2022-08-13T08:52:57Z</time>
      </trkpt>
      <trkpt lat="47.552404180" lon="11.061039045">
        <ele>1768.0</ele>
        <time>2022-08-13T08:54:00Z</time>
      </trkpt>
      <trkpt lat="47.552362103" lon="11.060927231">
        <ele>1769.9</ele>
        <time>2022-08-13T08:54:18Z</time>
      </trkpt>
      <trkpt lat="47.552343160" lon="11.060705697">
        <ele>1772.8</ele>
        <time>2022-08-13T08:54:48Z</time>
      </trkpt>
      <trkpt lat="47.552384315" lon="11.060518529">
        <ele>1777.1</ele>
        <time>2022-08-13T08:55:18Z</time>
      </trkpt>
      <trkpt lat="47.552397558" lon="11.060288781">
        <ele>1777.1</ele>
        <time>2022-08-13T08:55:42Z</time>
      </trkpt>
      <trkpt lat="47.552518006" lon="11.059969095">
        <ele>1781.0</ele>
        <time>2022-08-13T08:56:33Z</time>
      </trkpt>
      <trkpt lat="47.552516246" lon="11.059643878">
        <ele>1778.1</ele>
        <time>2022-08-13T08:57:18Z</time>
      </trkpt>
      <trkpt lat="47.552546002" lon="11.059540529">
        <ele>1778.6</ele>
        <time>2022-08-13T08:57:34Z</time>
      </trkpt>
      <trkpt lat="47.552538123" lon="11.059440197">
        <ele>1778.1</ele>
        <time>2022-08-13T08:57:49Z</time>
      </trkpt>
      <trkpt lat="47.552583469" lon="11.059197038">
        <ele>1775.2</ele>
        <time>2022-08-13T08:59:32Z</time>
      </trkpt>
      <trkpt lat="47.552523036" lon="11.059075752">
        <ele>1769.9</ele>
        <time>2022-08-13T09:00:13Z</time>
      </trkpt>
      <trkpt lat="47.552536698" lon="11.058885399">
        <ele>1766.6</ele>
        <time>2022-08-13T09:00:31Z</time>
      </trkpt>
      <trkpt lat="47.552531417" lon="11.058664704">
        <ele>1763.2</ele>
        <time>2022-08-13T09:00:48Z</time>
      </trkpt>
      <trkpt lat="47.552516917" lon="11.058474937">
        <ele>1763.2</ele>
        <time>2022-08-13T09:01:09Z</time>
      </trkpt>
      <trkpt lat="47.552564610" lon="11.058437303">
        <ele>1764.6</ele>
        <time>2022-08-13T09:01:40Z</time>
      </trkpt>
      <trkpt lat="47.552554552" lon="11.058385335">
        <ele>1766.6</ele>
        <time>2022-08-13T09:02:12Z</time>
      </trkpt>
      <trkpt lat="47.552578189" lon="11.058290619">
        <ele>1768.0</ele>
        <time>2022-08-13T09:02:29Z</time>
      </trkpt>
      <trkpt lat="47.552652452" lon="11.058126669">
        <ele>1775.2</ele>
        <time>2022-08-13T09:03:15Z</time>
      </trkpt>
      <trkpt lat="47.552711880" lon="11.058062380">
        <ele>1779.5</ele>
        <time>2022-08-13T09:03:50Z</time>
      </trkpt>
      <trkpt lat="47.552741971" lon="11.057955008">
        <ele>1784.3</ele>
        <time>2022-08-13T09:04:19Z</time>
      </trkpt>
      <trkpt lat="47.552804081" lon="11.057853419">
        <ele>1788.7</ele>
        <time>2022-08-13T09:04:53Z</time>
      </trkpt>
      <trkpt lat="47.552804500" lon="11.057746550">
        <ele>1790.6</ele>
        <time>2022-08-13T09:05:11Z</time>
      </trkpt>
      <trkpt lat="47.552838614" lon="11.057647392">
        <ele>1794.0</ele>
        <time>2022-08-13T09:05:35Z</time>
      </trkpt>
      <trkpt lat="47.552862000" lon="11.057496266">
        <ele>1796.8</ele>
        <time>2022-08-13T09:05:59Z</time>
      </trkpt>
      <trkpt lat="47.552862754" lon="11.057348074">
        <ele>1798.8</ele>
        <time>2022-08-13T09:06:16Z</time>
      </trkpt>
      <trkpt lat="47.552891839" lon="11.057236176">
        <ele>1803.1</ele>
        <time>2022-08-13T09:06:46Z</time>
      </trkpt>
      <trkpt lat="47.552889157" lon="11.057108520">
        <ele>1805.5</ele>
        <time>2022-08-13T09:07:05Z</time>
      </trkpt>
      <trkpt lat="47.552928636" lon="11.056928309">
        <ele>1810.8</ele>
        <time>2022-08-13T09:07:48Z</time>
      </trkpt>
      <trkpt lat="47.552961828" lon="11.056888327">
        <ele>1813.2</ele>
        <time>2022-08-13T09:08:08Z</time>
      </trkpt>
      <trkpt lat="47.552967779" lon="11.056821272">
        <ele>1815.6</ele>
        <time>2022-08-13T09:08:24Z</time>
      </trkpt>
      <trkpt lat="47.552999379" lon="11.056812303">
        <ele>1818.0</ele>
        <time>2022-08-13T09:08:40Z</time>
      </trkpt>
      <trkpt lat="47.553005749" lon="11.056750026">
        <ele>1819.9</ele>
        <time>2022-08-13T09:08:55Z</time>
      </trkpt>
      <trkpt lat="47.553022848" lon="11.056749690">
        <ele>1821.3</ele>
        <time>2022-08-13T09:09:10Z</time>
      </trkpt>
      <trkpt lat="47.553063668" lon="11.056645419">
        <ele>1826.6</ele>
        <time>2022-08-13T09:09:55Z</time>
      </trkpt>
      <trkpt lat="47.553102225" lon="11.056651957">
        <ele>1828.1</ele>
        <time>2022-08-13T09:10:11Z</time>
      </trkpt>
      <trkpt lat="47.553122174" lon="11.056601498">
        <ele>1830.5</ele>
        <time>2022-08-13T09:10:26Z</time>
      </trkpt>
      <trkpt lat="47.553119995" lon="11.056465376">
        <ele>1833.4</ele>
        <time>2022-08-13T09:10:47Z</time>
      </trkpt>
      <trkpt lat="47.553133490" lon="11.056431932">
        <ele>1835.3</ele>
        <time>2022-08-13T09:11:02Z</time>
      </trkpt>
      <trkpt lat="47.553157713" lon="11.056476356">
        <ele>1837.2</ele>
        <time>2022-08-13T09:11:23Z</time>
      </trkpt>
      <trkpt lat="47.553184368" lon="11.056476859">
        <ele>1838.7</ele>
        <time>2022-08-13T09:11:39Z</time>
      </trkpt>
      <trkpt lat="47.553202054" lon="11.056229761">
        <ele>1843.0</ele>
        <time>2022-08-13T09:12:20Z</time>
      </trkpt>
      <trkpt lat="47.553237928" lon="11.056138650">
        <ele>1845.9</ele>
        <time>2022-08-13T09:12:42Z</time>
      </trkpt>
      <trkpt lat="47.553255949" lon="11.056031445">
        <ele>1850.2</ele>
        <time>2022-08-13T09:13:12Z</time>
      </trkpt>
      <trkpt lat="47.553240359" lon="11.055703210">
        <ele>1857.4</ele>
        <time>2022-08-13T09:14:06Z</time>
      </trkpt>
      <trkpt lat="47.553301128" lon="11.055666162">
        <ele>1858.8</ele>
        <time>2022-08-13T09:14:23Z</time>
      </trkpt>
      <trkpt lat="47.553324848" lon="11.055553677">
        <ele>1860.8</ele>
        <time>2022-08-13T09:14:41Z</time>
      </trkpt>
      <trkpt lat="47.553304564" lon="11.055368772">
        <ele>1865.1</ele>
        <time>2022-08-13T09:15:20Z</time>
      </trkpt>
      <trkpt lat="47.553343875" lon="11.055160817">
        <ele>1868.9</ele>
        <time>2022-08-13T09:16:06Z</time>
      </trkpt>
      <trkpt lat="47.553416546" lon="11.055075740">
        <ele>1871.8</ele>
        <time>2022-08-13T09:16:57Z</time>
      </trkpt>
      <trkpt lat="47.553435490" lon="11.055094851">
        <ele>1872.8</ele>
        <time>2022-08-13T09:17:29Z</time>
      </trkpt>
      <trkpt lat="47.553410763" lon="11.055120164">
        <ele>1872.3</ele>
        <time>2022-08-13T09:18:10Z</time>
      </trkpt>
      <trkpt lat="47.553407494" lon="11.055104910">
        <ele>1871.8</ele>
        <time>2022-08-13T09:18:35Z</time>
      </trkpt>
      <trkpt lat="47.553415289" lon="11.055092085">
        <ele>1871.8</ele>
        <time>2022-08-13T09:18:50Z</time>
      </trkpt>
      <trkpt lat="47.553414367" lon="11.055121673">
        <ele>1871.8</ele>
        <time>2022-08-13T09:19:18Z</time>
      </trkpt>
      <trkpt lat="47.553417217" lon="11.055131983">
        <ele>1869.4</ele>
        <time>2022-08-13T09:50:58Z</time>
      </trkpt>
      <trkpt lat="47.553492486" lon="11.055105412">
        <ele>1869.4</ele>
        <time>2022-08-13T09:51:50Z</time>
      </trkpt>
      <trkpt lat="47.553571947" lon="11.055118823">
        <ele>1869.4</ele>
        <time>2022-08-13T09:52:30Z</time>
      </trkpt>
      <trkpt lat="47.553787110" lon="11.055029388">
        <ele>1862.2</ele>
        <time>2022-08-13T09:53:24Z</time>
      </trkpt>
      <trkpt lat="47.553784512" lon="11.054992843">
        <ele>1860.3</ele>
        <time>2022-08-13T09:53:37Z</time>
      </trkpt>
      <trkpt lat="47.553836061" lon="11.054936349">
        <ele>1858.4</ele>
        <time>2022-08-13T09:53:51Z</time>
      </trkpt>
      <trkpt lat="47.553890292" lon="11.054914724">
        <ele>1856.0</ele>
        <time>2022-08-13T09:54:01Z</time>
      </trkpt>
      <trkpt lat="47.553993473" lon="11.055001058">
        <ele>1854.0</ele>
        <time>2022-08-13T09:54:19Z</time>
      </trkpt>
      <trkpt lat="47.554064216" lon="11.055009942">
        <ele>1852.6</ele>
        <time>2022-08-13T09:54:34Z</time>
      </trkpt>
      <trkpt lat="47.554310225" lon="11.054872060">
        <ele>1842.0</ele>
        <time>2022-08-13T09:55:19Z</time>
      </trkpt>
      <trkpt lat="47.554366719" lon="11.054770220">
        <ele>1839.1</ele>
        <time>2022-08-13T09:55:33Z</time>
      </trkpt>
      <trkpt lat="47.554362360" lon="11.054716157">
        <ele>1837.7</ele>
        <time>2022-08-13T09:55:46Z</time>
      </trkpt>
      <trkpt lat="47.554408042" lon="11.054679360">
        <ele>1835.3</ele>
        <time>2022-08-13T09:55:59Z</time>
      </trkpt>
      <trkpt lat="47.554413741" lon="11.054644156">
        <ele>1833.4</ele>
        <time>2022-08-13T09:56:11Z</time>
      </trkpt>
      <trkpt lat="47.554531842" lon="11.054612305">
        <ele>1830.5</ele>
        <time>2022-08-13T09:56:27Z</time>
      </trkpt>
      <trkpt lat="47.554599233" lon="11.054617586">
        <ele>1829.0</ele>
        <time>2022-08-13T09:56:39Z</time>
      </trkpt>
      <trkpt lat="47.554671401" lon="11.054508034">
        <ele>1826.6</ele>
        <time>2022-08-13T09:56:56Z</time>
      </trkpt>
      <trkpt lat="47.554733427" lon="11.054295721">
        <ele>1819.9</ele>
        <time>2022-08-13T09:57:40Z</time>
      </trkpt>
      <trkpt lat="47.555020843" lon="11.054114085">
        <ele>1814.2</ele>
        <time>2022-08-13T09:58:22Z</time>
      </trkpt>
      <trkpt lat="47.555101896" lon="11.054048538">
        <ele>1812.7</ele>
        <time>2022-08-13T09:58:35Z</time>
      </trkpt>
      <trkpt lat="47.555189151" lon="11.053928090">
        <ele>1809.8</ele>
        <time>2022-08-13T09:58:54Z</time>
      </trkpt>
      <trkpt lat="47.555399872" lon="11.053834381">
        <ele>1806.0</ele>
        <time>2022-08-13T09:59:23Z</time>
      </trkpt>
      <trkpt lat="47.555494923" lon="11.053832118">
        <ele>1803.1</ele>
        <time>2022-08-13T09:59:40Z</time>
      </trkpt>
      <trkpt lat="47.555560134" lon="11.053855419">
        <ele>1800.2</ele>
        <time>2022-08-13T09:59:55Z</time>
      </trkpt>
      <trkpt lat="47.555601373" lon="11.053796075">
        <ele>1797.8</ele>
        <time>2022-08-13T10:00:08Z</time>
      </trkpt>
      <trkpt lat="47.555653257" lon="11.053766487">
        <ele>1794.9</ele>
        <time>2022-08-13T10:00:21Z</time>
      </trkpt>
      <trkpt lat="47.555680499" lon="11.053690799">
        <ele>1791.5</ele>
        <time>2022-08-13T10:00:35Z</time>
      </trkpt>
      <trkpt lat="47.555739591" lon="11.053638915">
        <ele>1787.7</ele>
        <time>2022-08-13T10:00:57Z</time>
      </trkpt>
      <trkpt lat="47.555779405" lon="11.053662803">
        <ele>1785.8</ele>
        <time>2022-08-13T10:01:08Z</time>
      </trkpt>
      <trkpt lat="47.555811843" lon="11.053724242">
        <ele>1784.8</ele>
        <time>2022-08-13T10:01:19Z</time>
      </trkpt>
      <trkpt lat="47.555865487" lon="11.053767158">
        <ele>1781.9</ele>
        <time>2022-08-13T10:01:34Z</time>
      </trkpt>
      <trkpt lat="47.555881077" lon="11.053816360">
        <ele>1780.5</ele>
        <time>2022-08-13T10:01:45Z</time>
      </trkpt>
      <trkpt lat="47.555977972" lon="11.053848630">
        <ele>1773.3</ele>
        <time>2022-08-13T10:02:18Z</time>
      </trkpt>
      <trkpt lat="47.556079729" lon="11.053928258">
        <ele>1768.0</ele>
        <time>2022-08-13T10:02:46Z</time>
      </trkpt>
      <trkpt lat="47.556130690" lon="11.053939490">
        <ele>1766.1</ele>
        <time>2022-08-13T10:02:57Z</time>
      </trkpt>
      <trkpt lat="47.556145946" lon="11.053994559">
        <ele>1764.6</ele>
        <time>2022-08-13T10:03:05Z</time>
      </trkpt>
      <trkpt lat="47.556259185" lon="11.054134536">
        <ele>1758.9</ele>
        <time>2022-08-13T10:03:32Z</time>
      </trkpt>
      <trkpt lat="47.556338981" lon="11.054218104">
        <ele>1754.1</ele>
        <time>2022-08-13T10:03:53Z</time>
      </trkpt>
      <trkpt lat="47.556484323" lon="11.054469645">
        <ele>1745.4</ele>
        <time>2022-08-13T10:04:34Z</time>
      </trkpt>
      <trkpt lat="47.556624133" lon="11.054544747">
        <ele>1742.5</ele>
        <time>2022-08-13T10:04:54Z</time>
      </trkpt>
      <trkpt lat="47.556689009" lon="11.054603420">
        <ele>1741.1</ele>
        <time>2022-08-13T10:05:08Z</time>
      </trkpt>
      <trkpt lat="47.556764279" lon="11.054626638">
        <ele>1738.2</ele>
        <time>2022-08-13T10:05:22Z</time>
      </trkpt>
      <trkpt lat="47.556838877" lon="11.054689921">
        <ele>1733.4</ele>
        <time>2022-08-13T10:05:54Z</time>
      </trkpt>
      <trkpt lat="47.556883469" lon="11.054770052">
        <ele>1730.5</ele>
        <time>2022-08-13T10:06:18Z</time>
      </trkpt>
      <trkpt lat="47.556924960" lon="11.054736357">
        <ele>1729.1</ele>
        <time>2022-08-13T10:06:25Z</time>
      </trkpt>
      <trkpt lat="47.557009030" lon="11.054932075">
        <ele>1722.3</ele>
        <time>2022-08-13T10:06:57Z</time>
      </trkpt>
      <trkpt lat="47.557175495" lon="11.055036765">
        <ele>1714.2</ele>
        <time>2022-08-13T10:07:33Z</time>
      </trkpt>
      <trkpt lat="47.557245232" lon="11.055124356">
        <ele>1707.4</ele>
        <time>2022-08-13T10:09:27Z</time>
      </trkpt>
      <trkpt lat="47.557329387" lon="11.055181436">
        <ele>1704.5</ele>
        <time>2022-08-13T10:09:41Z</time>
      </trkpt>
      <trkpt lat="47.557416558" lon="11.055182442">
        <ele>1701.2</ele>
        <time>2022-08-13T10:09:53Z</time>
      </trkpt>
      <trkpt lat="47.557455199" lon="11.055224435">
        <ele>1699.3</ele>
        <time>2022-08-13T10:10:06Z</time>
      </trkpt>
      <trkpt lat="47.557387054" lon="11.055334657">
        <ele>1696.4</ele>
        <time>2022-08-13T10:10:31Z</time>
      </trkpt>
      <trkpt lat="47.557313796" lon="11.055358294">
        <ele>1693.5</ele>
        <time>2022-08-13T10:10:44Z</time>
      </trkpt>
      <trkpt lat="47.557290075" lon="11.055425433">
        <ele>1690.6</ele>
        <time>2022-08-13T10:10:57Z</time>
      </trkpt>
      <trkpt lat="47.557154372" lon="11.055524843">
        <ele>1685.8</ele>
        <time>2022-08-13T10:11:26Z</time>
      </trkpt>
      <trkpt lat="47.556961253" lon="11.055704802">
        <ele>1682.0</ele>
        <time>2022-08-13T10:12:12Z</time>
      </trkpt>
      <trkpt lat="47.556948177" lon="11.055763392">
        <ele>1680.5</ele>
        <time>2022-08-13T10:12:24Z</time>
      </trkpt>
      <trkpt lat="47.556867963" lon="11.055841260">
        <ele>1677.6</ele>
        <time>2022-08-13T10:12:38Z</time>
      </trkpt>
      <trkpt lat="47.556752209" lon="11.056020884">
        <ele>1671.4</ele>
        <time>2022-08-13T10:13:06Z</time>
      </trkpt>
      <trkpt lat="47.556797303" lon="11.056084670">
        <ele>1668.0</ele>
        <time>2022-08-13T10:13:19Z</time>
      </trkpt>
      <trkpt lat="47.556782551" lon="11.056220038">
        <ele>1664.2</ele>
        <time>2022-08-13T10:13:57Z</time>
      </trkpt>
      <trkpt lat="47.556703761" lon="11.056436794">
        <ele>1658.4</ele>
        <time>2022-08-13T10:14:35Z</time>
      </trkpt>
      <trkpt lat="47.556638885" lon="11.056459844">
        <ele>1656.0</ele>
        <time>2022-08-13T10:14:48Z</time>
      </trkpt>
      <trkpt lat="47.556609968" lon="11.056428160">
        <ele>1654.6</ele>
        <time>2022-08-13T10:15:00Z</time>
      </trkpt>
      <trkpt lat="47.556560431" lon="11.056594457">
        <ele>1649.3</ele>
        <time>2022-08-13T10:15:25Z</time>
      </trkpt>
      <trkpt lat="47.556507708" lon="11.056560846">
        <ele>1645.9</ele>
        <time>2022-08-13T10:15:37Z</time>
      </trkpt>
      <trkpt lat="47.556492873" lon="11.056651119">
        <ele>1645.0</ele>
        <time>2022-08-13T10:15:48Z</time>
      </trkpt>
      <trkpt lat="47.556366976" lon="11.056818757">
        <ele>1637.7</ele>
        <time>2022-08-13T10:16:26Z</time>
      </trkpt>
      <trkpt lat="47.556301262" lon="11.056851363">
        <ele>1635.3</ele>
        <time>2022-08-13T10:16:38Z</time>
      </trkpt>
      <trkpt lat="47.556272931" lon="11.056909114">
        <ele>1632.9</ele>
        <time>2022-08-13T10:16:50Z</time>
      </trkpt>
      <trkpt lat="47.556278715" lon="11.056990167">
        <ele>1629.6</ele>
        <time>2022-08-13T10:17:21Z</time>
      </trkpt>
      <trkpt lat="47.556346692" lon="11.057157051">
        <ele>1623.3</ele>
        <time>2022-08-13T10:17:58Z</time>
      </trkpt>
      <trkpt lat="47.556455741" lon="11.057294095">
        <ele>1618.0</ele>
        <time>2022-08-13T10:18:36Z</time>
      </trkpt>
      <trkpt lat="47.556498237" lon="11.057375316">
        <ele>1615.2</ele>
        <time>2022-08-13T10:18:49Z</time>
      </trkpt>
      <trkpt lat="47.556534279" lon="11.057480425">
        <ele>1612.3</ele>
        <time>2022-08-13T10:19:03Z</time>
      </trkpt>
      <trkpt lat="47.556546098" lon="11.057605734">
        <ele>1608.9</ele>
        <time>2022-08-13T10:19:16Z</time>
      </trkpt>
      <trkpt lat="47.556532603" lon="11.057728194">
        <ele>1606.5</ele>
        <time>2022-08-13T10:19:28Z</time>
      </trkpt>
      <trkpt lat="47.556550708" lon="11.057873368">
        <ele>1603.1</ele>
        <time>2022-08-13T10:19:41Z</time>
      </trkpt>
      <trkpt lat="47.556539308" lon="11.057969257">
        <ele>1600.7</ele>
        <time>2022-08-13T10:19:54Z</time>
      </trkpt>
      <trkpt lat="47.556466972" lon="11.058097836">
        <ele>1595.5</ele>
        <time>2022-08-13T10:20:23Z</time>
      </trkpt>
      <trkpt lat="47.556270668" lon="11.058362368">
        <ele>1587.8</ele>
        <time>2022-08-13T10:21:16Z</time>
      </trkpt>
      <trkpt lat="47.556300675" lon="11.058445349">
        <ele>1585.8</ele>
        <time>2022-08-13T10:21:28Z</time>
      </trkpt>
      <trkpt lat="47.556311237" lon="11.058651209">
        <ele>1579.6</ele>
        <time>2022-08-13T10:21:52Z</time>
      </trkpt>
      <trkpt lat="47.556431182" lon="11.058905684">
        <ele>1570.9</ele>
        <time>2022-08-13T10:22:30Z</time>
      </trkpt>
      <trkpt lat="47.556512067" lon="11.058950024">
        <ele>1568.0</ele>
        <time>2022-08-13T10:22:43Z</time>
      </trkpt>
      <trkpt lat="47.556562442" lon="11.059084050">
        <ele>1564.2</ele>
        <time>2022-08-13T10:23:05Z</time>
      </trkpt>
      <trkpt lat="47.556580966" lon="11.059273314">
        <ele>1560.8</ele>
        <time>2022-08-13T10:23:24Z</time>
      </trkpt>
      <trkpt lat="47.556571160" lon="11.059417650">
        <ele>1558.4</ele>
        <time>2022-08-13T10:23:35Z</time>
      </trkpt>
      <trkpt lat="47.556745084" lon="11.060157437">
        <ele>1549.3</ele>
        <time>2022-08-13T10:24:33Z</time>
      </trkpt>
      <trkpt lat="47.556722201" lon="11.060235640">
        <ele>1548.8</ele>
        <time>2022-08-13T10:24:41Z</time>
      </trkpt>
      <trkpt lat="47.556730248" lon="11.060545687">
        <ele>1547.9</ele>
        <time>2022-08-13T10:25:08Z</time>
      </trkpt>
      <trkpt lat="47.556680879" lon="11.060937960">
        <ele>1547.9</ele>
        <time>2022-08-13T10:25:42Z</time>
      </trkpt>
      <trkpt lat="47.556432774" lon="11.061055725">
        <ele>1543.5</ele>
        <time>2022-08-13T10:26:23Z</time>
      </trkpt>
      <trkpt lat="47.556389943" lon="11.061157901">
        <ele>1540.7</ele>
        <time>2022-08-13T10:26:36Z</time>
      </trkpt>
      <trkpt lat="47.556314757" lon="11.061251694">
        <ele>1536.3</ele>
        <time>2022-08-13T10:27:06Z</time>
      </trkpt>
      <trkpt lat="47.556220796" lon="11.061454369">
        <ele>1534.9</ele>
        <time>2022-08-13T10:27:27Z</time>
      </trkpt>
      <trkpt lat="47.556150891" lon="11.061492255">
        <ele>1532.5</ele>
        <time>2022-08-13T10:27:41Z</time>
      </trkpt>
      <trkpt lat="47.556115268" lon="11.061539194">
        <ele>1529.6</ele>
        <time>2022-08-13T10:27:54Z</time>
      </trkpt>
      <trkpt lat="47.556127002" lon="11.061648494">
        <ele>1525.8</ele>
        <time>2022-08-13T10:28:10Z</time>
      </trkpt>
      <trkpt lat="47.556054667" lon="11.061687050">
        <ele>1522.4</ele>
        <time>2022-08-13T10:28:21Z</time>
      </trkpt>
      <trkpt lat="47.556088110" lon="11.061814455">
        <ele>1519.5</ele>
        <time>2022-08-13T10:28:32Z</time>
      </trkpt>
      <trkpt lat="47.556060953" lon="11.061918642">
        <ele>1516.1</ele>
        <time>2022-08-13T10:28:44Z</time>
      </trkpt>
      <trkpt lat="47.556112586" lon="11.062044287">
        <ele>1512.8</ele>
        <time>2022-08-13T10:29:01Z</time>
      </trkpt>
      <trkpt lat="47.556103030" lon="11.062260121">
        <ele>1508.5</ele>
        <time>2022-08-13T10:29:17Z</time>
      </trkpt>
      <trkpt lat="47.556192214" lon="11.062349472">
        <ele>1506.0</ele>
        <time>2022-08-13T10:29:28Z</time>
      </trkpt>
      <trkpt lat="47.556273602" lon="11.062530940">
        <ele>1502.7</ele>
        <time>2022-08-13T10:29:42Z</time>
      </trkpt>
      <trkpt lat="47.556383321" lon="11.062590452">
        <ele>1501.2</ele>
        <time>2022-08-13T10:29:56Z</time>
      </trkpt>
      <trkpt lat="47.556475606" lon="11.062714923">
        <ele>1500.8</ele>
        <time>2022-08-13T10:30:46Z</time>
      </trkpt>
      <trkpt lat="47.556673922" lon="11.062922711">
        <ele>1501.2</ele>
        <time>2022-08-13T10:32:02Z</time>
      </trkpt>
      <trkpt lat="47.556720441" lon="11.063090516">
        <ele>1504.1</ele>
        <time>2022-08-13T10:32:23Z</time>
      </trkpt>
      <trkpt lat="47.556946166" lon="11.063310374">
        <ele>1502.2</ele>
        <time>2022-08-13T10:32:55Z</time>
      </trkpt>
      <trkpt lat="47.556975167" lon="11.063312888">
        <ele>1502.7</ele>
        <time>2022-08-13T10:32:58Z</time>
      </trkpt>
      <trkpt lat="47.557107182" lon="11.063434342">
        <ele>1502.2</ele>
        <time>2022-08-13T10:33:19Z</time>
      </trkpt>
      <trkpt lat="47.557194606" lon="11.063433588">
        <ele>1500.8</ele>
        <time>2022-08-13T10:33:34Z</time>
      </trkpt>
      <trkpt lat="47.557275072" lon="11.063503828">
        <ele>1496.4</ele>
        <time>2022-08-13T10:33:58Z</time>
      </trkpt>
      <trkpt lat="47.557398118" lon="11.063530315">
        <ele>1490.7</ele>
        <time>2022-08-13T10:34:21Z</time>
      </trkpt>
      <trkpt lat="47.557465425" lon="11.063635927">
        <ele>1487.8</ele>
        <time>2022-08-13T10:34:35Z</time>
      </trkpt>
      <trkpt lat="47.557693832" lon="11.063855952">
        <ele>1480.6</ele>
        <time>2022-08-13T10:35:16Z</time>
      </trkpt>
      <trkpt lat="47.557849987" lon="11.064087376">
        <ele>1480.6</ele>
        <time>2022-08-13T10:36:05Z</time>
      </trkpt>
      <trkpt lat="47.557855770" lon="11.064144792">
        <ele>1479.6</ele>
        <time>2022-08-13T10:36:21Z</time>
      </trkpt>
      <trkpt lat="47.558228429" lon="11.064244621">
        <ele>1473.4</ele>
        <time>2022-08-13T10:38:08Z</time>
      </trkpt>
      <trkpt lat="47.558268662" lon="11.064405721">
        <ele>1471.4</ele>
        <time>2022-08-13T10:38:36Z</time>
      </trkpt>
      <trkpt lat="47.558334460" lon="11.064483924">
        <ele>1470.0</ele>
        <time>2022-08-13T10:38:50Z</time>
      </trkpt>
      <trkpt lat="47.558401013" lon="11.064527091">
        <ele>1470.0</ele>
        <time>2022-08-13T10:39:04Z</time>
      </trkpt>
      <trkpt lat="47.558562951" lon="11.064399686">
        <ele>1465.2</ele>
        <time>2022-08-13T10:39:31Z</time>
      </trkpt>
      <trkpt lat="47.558616679" lon="11.064416617">
        <ele>1462.8</ele>
        <time>2022-08-13T10:39:44Z</time>
      </trkpt>
      <trkpt lat="47.558738803" lon="11.064518122">
        <ele>1460.4</ele>
        <time>2022-08-13T10:40:04Z</time>
      </trkpt>
      <trkpt lat="47.558852211" lon="11.064655418">
        <ele>1460.4</ele>
        <time>2022-08-13T10:40:34Z</time>
      </trkpt>
      <trkpt lat="47.558953380" lon="11.064688442">
        <ele>1459.4</ele>
        <time>2022-08-13T10:40:52Z</time>
      </trkpt>
      <trkpt lat="47.559146583" lon="11.064672768">
        <ele>1453.2</ele>
        <time>2022-08-13T10:41:35Z</time>
      </trkpt>
      <trkpt lat="47.559266360" lon="11.064716186">
        <ele>1450.8</ele>
        <time>2022-08-13T10:41:52Z</time>
      </trkpt>
      <trkpt lat="47.559316903" lon="11.064757425">
        <ele>1449.8</ele>
        <time>2022-08-13T10:43:20Z</time>
      </trkpt>
      <trkpt lat="47.559663830" lon="11.064850967">
        <ele>1443.1</ele>
        <time>2022-08-13T10:45:40Z</time>
      </trkpt>
      <trkpt lat="47.559735663" lon="11.064882735">
        <ele>1441.2</ele>
        <time>2022-08-13T10:45:49Z</time>
      </trkpt>
      <trkpt lat="47.559809089" lon="11.064969320">
        <ele>1438.3</ele>
        <time>2022-08-13T10:46:02Z</time>
      </trkpt>
      <trkpt lat="47.559846807" lon="11.064983401">
        <ele>1438.3</ele>
        <time>2022-08-13T10:46:06Z</time>
      </trkpt>
      <trkpt lat="47.559938673" lon="11.064941073">
        <ele>1437.8</ele>
        <time>2022-08-13T10:46:22Z</time>
      </trkpt>
      <trkpt lat="47.559982594" lon="11.064951131">
        <ele>1438.8</ele>
        <time>2022-08-13T10:46:34Z</time>
      </trkpt>
      <trkpt lat="47.560157608" lon="11.065099910">
        <ele>1438.8</ele>
        <time>2022-08-13T10:47:27Z</time>
      </trkpt>
      <trkpt lat="47.560284929" lon="11.065126061">
        <ele>1433.9</ele>
        <time>2022-08-13T10:48:00Z</time>
      </trkpt>
      <trkpt lat="47.560380315" lon="11.065176018">
        <ele>1433.9</ele>
        <time>2022-08-13T10:48:17Z</time>
      </trkpt>
      <trkpt lat="47.560464134" lon="11.065243660">
        <ele>1433.0</ele>
        <time>2022-08-13T10:48:34Z</time>
      </trkpt>
      <trkpt lat="47.560462123" lon="11.065282468">
        <ele>1433.0</ele>
        <time>2022-08-13T10:48:40Z</time>
      </trkpt>
      <trkpt lat="47.560532615" lon="11.065372573">
        <ele>1433.0</ele>
        <time>2022-08-13T10:48:53Z</time>
      </trkpt>
      <trkpt lat="47.560641579" lon="11.065468127">
        <ele>1431.1</ele>
        <time>2022-08-13T10:49:21Z</time>
      </trkpt>
      <trkpt lat="47.560756160" lon="11.065435521">
        <ele>1432.0</ele>
        <time>2022-08-13T10:49:39Z</time>
      </trkpt>
      <trkpt lat="47.560868142" lon="11.065526465">
        <ele>1430.6</ele>
        <time>2022-08-13T10:50:00Z</time>
      </trkpt>
      <trkpt lat="47.560986746" lon="11.065604584">
        <ele>1431.1</ele>
        <time>2022-08-13T10:50:26Z</time>
      </trkpt>
      <trkpt lat="47.561062016" lon="11.065632915">
        <ele>1432.5</ele>
        <time>2022-08-13T10:50:44Z</time>
      </trkpt>
      <trkpt lat="47.561116414" lon="11.065590503">
        <ele>1433.5</ele>
        <time>2022-08-13T10:50:57Z</time>
      </trkpt>
      <trkpt lat="47.561405674" lon="11.065761661">
        <ele>1433.0</ele>
        <time>2022-08-13T10:51:54Z</time>
      </trkpt>
      <trkpt lat="47.561588399" lon="11.065785382">
        <ele>1433.0</ele>
        <time>2022-08-13T10:52:19Z</time>
      </trkpt>
      <trkpt lat="47.561643384" lon="11.065824274">
        <ele>1432.5</ele>
        <time>2022-08-13T10:52:27Z</time>
      </trkpt>
      <trkpt lat="47.561738938" lon="11.065851515">
        <ele>1432.0</ele>
        <time>2022-08-13T10:52:41Z</time>
      </trkpt>
      <trkpt lat="47.561934153" lon="11.065826369">
        <ele>1431.5</ele>
        <time>2022-08-13T10:53:10Z</time>
      </trkpt>
      <trkpt lat="47.562009506" lon="11.065871129">
        <ele>1430.6</ele>
        <time>2022-08-13T10:53:25Z</time>
      </trkpt>
      <trkpt lat="47.562134396" lon="11.066002557">
        <ele>1429.6</ele>
        <time>2022-08-13T10:53:53Z</time>
      </trkpt>
      <trkpt lat="47.562224921" lon="11.066050501">
        <ele>1429.6</ele>
        <time>2022-08-13T10:54:05Z</time>
      </trkpt>
      <trkpt lat="47.562288372" lon="11.066059889">
        <ele>1428.2</ele>
        <time>2022-08-13T10:54:19Z</time>
      </trkpt>
      <trkpt lat="47.562524490" lon="11.066005742">
        <ele>1424.8</ele>
        <time>2022-08-13T10:55:02Z</time>
      </trkpt>
      <trkpt lat="47.562547708" lon="11.066043042">
        <ele>1422.4</ele>
        <time>2022-08-13T10:55:15Z</time>
      </trkpt>
      <trkpt lat="47.562500350" lon="11.066226354">
        <ele>1421.5</ele>
        <time>2022-08-13T10:55:42Z</time>
      </trkpt>
      <trkpt lat="47.562512336" lon="11.066448055">
        <ele>1418.1</ele>
        <time>2022-08-13T10:56:14Z</time>
      </trkpt>
      <trkpt lat="47.562599005" lon="11.066615442">
        <ele>1416.2</ele>
        <time>2022-08-13T10:56:47Z</time>
      </trkpt>
      <trkpt lat="47.562650973" lon="11.066635642">
        <ele>1416.2</ele>
        <time>2022-08-13T10:56:55Z</time>
      </trkpt>
      <trkpt lat="47.562672682" lon="11.066744188">
        <ele>1414.2</ele>
        <time>2022-08-13T10:57:10Z</time>
      </trkpt>
      <trkpt lat="47.562656756" lon="11.066839909">
        <ele>1412.3</ele>
        <time>2022-08-13T10:57:20Z</time>
      </trkpt>
      <trkpt lat="47.562601855" lon="11.067007715">
        <ele>1409.4</ele>
        <time>2022-08-13T10:57:37Z</time>
      </trkpt>
      <trkpt lat="47.562605208" lon="11.067186836">
        <ele>1405.1</ele>
        <time>2022-08-13T10:58:08Z</time>
      </trkpt>
      <trkpt lat="47.562586684" lon="11.067189686">
        <ele>1401.7</ele>
        <time>2022-08-13T10:59:49Z</time>
      </trkpt>
      <trkpt lat="47.562607303" lon="11.067295466">
        <ele>1402.2</ele>
        <time>2022-08-13T11:00:24Z</time>
      </trkpt>
      <trkpt lat="47.562676286" lon="11.067295382">
        <ele>1402.2</ele>
        <time>2022-08-13T11:01:01Z</time>
      </trkpt>
      <trkpt lat="47.562671090" lon="11.067329161">
        <ele>1396.9</ele>
        <time>2022-08-13T11:01:07Z</time>
      </trkpt>
      <trkpt lat="47.562734122" lon="11.067329245">
        <ele>1395.0</ele>
        <time>2022-08-13T11:01:21Z</time>
      </trkpt>
      <trkpt lat="47.562783659" lon="11.067370819">
        <ele>1392.1</ele>
        <time>2022-08-13T11:01:36Z</time>
      </trkpt>
      <trkpt lat="47.562737977" lon="11.067488920">
        <ele>1387.8</ele>
        <time>2022-08-13T11:02:02Z</time>
      </trkpt>
      <trkpt lat="47.562836129" lon="11.067531249">
        <ele>1383.0</ele>
        <time>2022-08-13T11:02:30Z</time>
      </trkpt>
      <trkpt lat="47.562874183" lon="11.067574248">
        <ele>1380.6</ele>
        <time>2022-08-13T11:02:44Z</time>
      </trkpt>
      <trkpt lat="47.562823640" lon="11.067619091">
        <ele>1378.2</ele>
        <time>2022-08-13T11:03:00Z</time>
      </trkpt>
      <trkpt lat="47.562787011" lon="11.067715818">
        <ele>1374.8</ele>
        <time>2022-08-13T11:03:37Z</time>
      </trkpt>
      <trkpt lat="47.562856078" lon="11.067774240">
        <ele>1371.0</ele>
        <time>2022-08-13T11:04:01Z</time>
      </trkpt>
      <trkpt lat="47.562925145" lon="11.067789914">
        <ele>1368.6</ele>
        <time>2022-08-13T11:04:16Z</time>
      </trkpt>
      <trkpt lat="47.563052969" lon="11.067906339">
        <ele>1361.4</ele>
        <time>2022-08-13T11:05:00Z</time>
      </trkpt>
      <trkpt lat="47.563003180" lon="11.067947159">
        <ele>1357.5</ele>
        <time>2022-08-13T11:05:27Z</time>
      </trkpt>
      <trkpt lat="47.563054645" lon="11.068003401">
        <ele>1354.6</ele>
        <time>2022-08-13T11:05:43Z</time>
      </trkpt>
      <trkpt lat="47.563165119" lon="11.068076407">
        <ele>1350.3</ele>
        <time>2022-08-13T11:06:13Z</time>
      </trkpt>
      <trkpt lat="47.563156569" lon="11.068139020">
        <ele>1348.4</ele>
        <time>2022-08-13T11:06:26Z</time>
      </trkpt>
      <trkpt lat="47.563135196" lon="11.068173554">
        <ele>1346.5</ele>
        <time>2022-08-13T11:06:38Z</time>
      </trkpt>
      <trkpt lat="47.563207867" lon="11.068204735">
        <ele>1341.7</ele>
        <time>2022-08-13T11:07:08Z</time>
      </trkpt>
      <trkpt lat="47.563227229" lon="11.068237675">
        <ele>1338.3</ele>
        <time>2022-08-13T11:07:37Z</time>
      </trkpt>
      <trkpt lat="47.563211806" lon="11.068298779">
        <ele>1336.4</ele>
        <time>2022-08-13T11:07:53Z</time>
      </trkpt>
      <trkpt lat="47.563252123" lon="11.068296852">
        <ele>1334.5</ele>
        <time>2022-08-13T11:08:08Z</time>
      </trkpt>
      <trkpt lat="47.563271653" lon="11.068384023">
        <ele>1330.6</ele>
        <time>2022-08-13T11:08:39Z</time>
      </trkpt>
      <trkpt lat="47.563305264" lon="11.068398356">
        <ele>1328.2</ele>
        <time>2022-08-13T11:08:54Z</time>
      </trkpt>
      <trkpt lat="47.563293111" lon="11.068502041">
        <ele>1323.9</ele>
        <time>2022-08-13T11:09:25Z</time>
      </trkpt>
      <trkpt lat="47.563312892" lon="11.068520146">
        <ele>1322.0</ele>
        <time>2022-08-13T11:09:38Z</time>
      </trkpt>
      <trkpt lat="47.563459994" lon="11.068539005">
        <ele>1311.9</ele>
        <time>2022-08-13T11:10:41Z</time>
      </trkpt>
      <trkpt lat="47.563484972" lon="11.068570186">
        <ele>1309.9</ele>
        <time>2022-08-13T11:10:55Z</time>
      </trkpt>
      <trkpt lat="47.563426634" lon="11.068737907">
        <ele>1304.2</ele>
        <time>2022-08-13T11:11:39Z</time>
      </trkpt>
      <trkpt lat="47.563490001" lon="11.068754839">
        <ele>1301.8</ele>
        <time>2022-08-13T11:11:59Z</time>
      </trkpt>
      <trkpt lat="47.563427137" lon="11.068835054">
        <ele>1299.4</ele>
        <time>2022-08-13T11:12:12Z</time>
      </trkpt>
      <trkpt lat="47.563427892" lon="11.068875538">
        <ele>1297.4</ele>
        <time>2022-08-13T11:12:23Z</time>
      </trkpt>
      <trkpt lat="47.563663842" lon="11.068868665">
        <ele>1287.8</ele>
        <time>2022-08-13T11:13:46Z</time>
      </trkpt>
      <trkpt lat="47.563613551" lon="11.068934128">
        <ele>1284.0</ele>
        <time>2022-08-13T11:14:19Z</time>
      </trkpt>
      <trkpt lat="47.563577592" lon="11.069055498">
        <ele>1280.1</ele>
        <time>2022-08-13T11:14:45Z</time>
      </trkpt>
      <trkpt lat="47.563699717" lon="11.069093216">
        <ele>1274.8</ele>
        <time>2022-08-13T11:15:18Z</time>
      </trkpt>
      <trkpt lat="47.563745901" lon="11.069096988">
        <ele>1273.9</ele>
        <time>2022-08-13T11:15:27Z</time>
      </trkpt>
      <trkpt lat="47.563779429" lon="11.069075698">
        <ele>1272.9</ele>
        <time>2022-08-13T11:15:31Z</time>
      </trkpt>
      <trkpt lat="47.563870540" lon="11.068999758">
        <ele>1271.5</ele>
        <time>2022-08-13T11:15:48Z</time>
      </trkpt>
      <trkpt lat="47.563904990" lon="11.068947204">
        <ele>1269.1</ele>
        <time>2022-08-13T11:16:03Z</time>
      </trkpt>
      <trkpt lat="47.563944384" lon="11.069026161">
        <ele>1266.7</ele>
        <time>2022-08-13T11:16:20Z</time>
      </trkpt>
      <trkpt lat="47.563926028" lon="11.069111992">
        <ele>1265.2</ele>
        <time>2022-08-13T11:16:36Z</time>
      </trkpt>
      <trkpt lat="47.563935667" lon="11.069223219">
        <ele>1262.3</ele>
        <time>2022-08-13T11:17:01Z</time>
      </trkpt>
      <trkpt lat="47.564019822" lon="11.069320617">
        <ele>1255.1</ele>
        <time>2022-08-13T11:17:37Z</time>
      </trkpt>
      <trkpt lat="47.564051002" lon="11.069254149">
        <ele>1252.2</ele>
        <time>2022-08-13T11:17:55Z</time>
      </trkpt>
      <trkpt lat="47.564081093" lon="11.069262279">
        <ele>1250.3</ele>
        <time>2022-08-13T11:18:08Z</time>
      </trkpt>
      <trkpt lat="47.564077489" lon="11.069181226">
        <ele>1247.9</ele>
        <time>2022-08-13T11:18:22Z</time>
      </trkpt>
      <trkpt lat="47.564103557" lon="11.069191368">
        <ele>1246.0</ele>
        <time>2022-08-13T11:18:35Z</time>
      </trkpt>
      <trkpt lat="47.564120237" lon="11.069060611">
        <ele>1241.7</ele>
        <time>2022-08-13T11:19:10Z</time>
      </trkpt>
      <trkpt lat="47.564138425" lon="11.069065053">
        <ele>1240.2</ele>
        <time>2022-08-13T11:19:25Z</time>
      </trkpt>
      <trkpt lat="47.564154435" lon="11.069107801">
        <ele>1238.8</ele>
        <time>2022-08-13T11:19:39Z</time>
      </trkpt>
      <trkpt lat="47.564172540" lon="11.069062119">
        <ele>1236.4</ele>
        <time>2022-08-13T11:19:55Z</time>
      </trkpt>
      <trkpt lat="47.564191315" lon="11.069111740">
        <ele>1235.0</ele>
        <time>2022-08-13T11:20:12Z</time>
      </trkpt>
      <trkpt lat="47.564209672" lon="11.069085505">
        <ele>1233.0</ele>
        <time>2022-08-13T11:20:24Z</time>
      </trkpt>
      <trkpt lat="47.564238505" lon="11.069185585">
        <ele>1229.7</ele>
        <time>2022-08-13T11:20:57Z</time>
      </trkpt>
      <trkpt lat="47.564260717" lon="11.069162786">
        <ele>1226.8</ele>
        <time>2022-08-13T11:21:12Z</time>
      </trkpt>
      <trkpt lat="47.564276392" lon="11.069238977">
        <ele>1224.9</ele>
        <time>2022-08-13T11:21:28Z</time>
      </trkpt>
      <trkpt lat="47.564312769" lon="11.069197822">
        <ele>1222.5</ele>
        <time>2022-08-13T11:21:47Z</time>
      </trkpt>
      <trkpt lat="47.564329617" lon="11.069085086">
        <ele>1220.5</ele>
        <time>2022-08-13T11:22:01Z</time>
      </trkpt>
      <trkpt lat="47.564350404" lon="11.069075195">
        <ele>1219.6</ele>
        <time>2022-08-13T11:22:13Z</time>
      </trkpt>
      <trkpt lat="47.564384434" lon="11.069125235">
        <ele>1216.2</ele>
        <time>2022-08-13T11:22:42Z</time>
      </trkpt>
      <trkpt lat="47.564420141" lon="11.069130348">
        <ele>1213.8</ele>
        <time>2022-08-13T11:22:57Z</time>
      </trkpt>
      <trkpt lat="47.564413017" lon="11.069208970">
        <ele>1209.5</ele>
        <time>2022-08-13T11:23:26Z</time>
      </trkpt>
      <trkpt lat="47.564471019" lon="11.069407118">
        <ele>1205.6</ele>
        <time>2022-08-13T11:23:57Z</time>
      </trkpt>
      <trkpt lat="47.564507900" lon="11.069455482">
        <ele>1203.2</ele>
        <time>2022-08-13T11:24:12Z</time>
      </trkpt>
      <trkpt lat="47.564531202" lon="11.069398737">
        <ele>1201.3</ele>
        <time>2022-08-13T11:24:27Z</time>
      </trkpt>
      <trkpt lat="47.564524244" lon="11.069347942">
        <ele>1198.9</ele>
        <time>2022-08-13T11:24:40Z</time>
      </trkpt>
      <trkpt lat="47.564552324" lon="11.069322042">
        <ele>1197.0</ele>
        <time>2022-08-13T11:24:53Z</time>
      </trkpt>
      <trkpt lat="47.564605046" lon="11.069353474">
        <ele>1193.6</ele>
        <time>2022-08-13T11:25:23Z</time>
      </trkpt>
      <trkpt lat="47.564634802" lon="11.069405777">
        <ele>1191.7</ele>
        <time>2022-08-13T11:25:37Z</time>
      </trkpt>
      <trkpt lat="47.564652739" lon="11.069522956">
        <ele>1188.8</ele>
        <time>2022-08-13T11:25:53Z</time>
      </trkpt>
      <trkpt lat="47.564737145" lon="11.069701072">
        <ele>1183.0</ele>
        <time>2022-08-13T11:27:09Z</time>
      </trkpt>
      <trkpt lat="47.564798836" lon="11.069883294">
        <ele>1177.3</ele>
        <time>2022-08-13T11:27:42Z</time>
      </trkpt>
      <trkpt lat="47.564803027" lon="11.069934676">
        <ele>1175.3</ele>
        <time>2022-08-13T11:27:54Z</time>
      </trkpt>
      <trkpt lat="47.564821131" lon="11.069925791">
        <ele>1173.4</ele>
        <time>2022-08-13T11:28:08Z</time>
      </trkpt>
      <trkpt lat="47.564885504" lon="11.069988655">
        <ele>1168.6</ele>
        <time>2022-08-13T11:28:39Z</time>
      </trkpt>
      <trkpt lat="47.564900257" lon="11.069969628">
        <ele>1167.2</ele>
        <time>2022-08-13T11:28:55Z</time>
      </trkpt>
      <trkpt lat="47.564957421" lon="11.070064092">
        <ele>1163.3</ele>
        <time>2022-08-13T11:29:23Z</time>
      </trkpt>
      <trkpt lat="47.564995894" lon="11.070064511">
        <ele>1160.9</ele>
        <time>2022-08-13T11:29:39Z</time>
      </trkpt>
      <trkpt lat="47.565007126" lon="11.069990834">
        <ele>1158.0</ele>
        <time>2022-08-13T11:29:54Z</time>
      </trkpt>
      <trkpt lat="47.565076277" lon="11.069977507">
        <ele>1154.7</ele>
        <time>2022-08-13T11:30:26Z</time>
      </trkpt>
      <trkpt lat="47.565088263" lon="11.069919672">
        <ele>1153.2</ele>
        <time>2022-08-13T11:30:39Z</time>
      </trkpt>
      <trkpt lat="47.565124975" lon="11.070026206">
        <ele>1147.5</ele>
        <time>2022-08-13T11:32:31Z</time>
      </trkpt>
      <trkpt lat="47.565159928" lon="11.069936184">
        <ele>1142.7</ele>
        <time>2022-08-13T11:33:06Z</time>
      </trkpt>
      <trkpt lat="47.565183817" lon="11.069927886">
        <ele>1140.3</ele>
        <time>2022-08-13T11:33:31Z</time>
      </trkpt>
      <trkpt lat="47.565185325" lon="11.069863848">
        <ele>1136.9</ele>
        <time>2022-08-13T11:33:58Z</time>
      </trkpt>
      <trkpt lat="47.565152049" lon="11.069743065">
        <ele>1132.6</ele>
        <time>2022-08-13T11:34:28Z</time>
      </trkpt>
      <trkpt lat="47.565185325" lon="11.069710292">
        <ele>1130.2</ele>
        <time>2022-08-13T11:34:58Z</time>
      </trkpt>
      <trkpt lat="47.565215416" lon="11.069751028">
        <ele>1128.7</ele>
        <time>2022-08-13T11:35:12Z</time>
      </trkpt>
      <trkpt lat="47.565234024" lon="11.069636364">
        <ele>1124.9</ele>
        <time>2022-08-13T11:35:35Z</time>
      </trkpt>
      <trkpt lat="47.565273670" lon="11.069605099">
        <ele>1122.5</ele>
        <time>2022-08-13T11:35:52Z</time>
      </trkpt>
      <trkpt lat="47.565294960" lon="11.069678692">
        <ele>1120.5</ele>
        <time>2022-08-13T11:36:07Z</time>
      </trkpt>
      <trkpt lat="47.565340726" lon="11.069751028">
        <ele>1117.7</ele>
        <time>2022-08-13T11:36:21Z</time>
      </trkpt>
      <trkpt lat="47.565362770" lon="11.069615409">
        <ele>1112.4</ele>
        <time>2022-08-13T11:36:49Z</time>
      </trkpt>
      <trkpt lat="47.565436866" lon="11.069742562">
        <ele>1108.5</ele>
        <time>2022-08-13T11:37:20Z</time>
      </trkpt>
      <trkpt lat="47.565466287" lon="11.069700066">
        <ele>1106.6</ele>
        <time>2022-08-13T11:37:35Z</time>
      </trkpt>
      <trkpt lat="47.565454049" lon="11.069665952">
        <ele>1104.7</ele>
        <time>2022-08-13T11:37:52Z</time>
      </trkpt>
      <trkpt lat="47.565469723" lon="11.069635525">
        <ele>1101.3</ele>
        <time>2022-08-13T11:38:22Z</time>
      </trkpt>
      <trkpt lat="47.565515237" lon="11.069639632">
        <ele>1098.0</ele>
        <time>2022-08-13T11:38:49Z</time>
      </trkpt>
      <trkpt lat="47.565537030" lon="11.069586743">
        <ele>1095.6</ele>
        <time>2022-08-13T11:39:03Z</time>
      </trkpt>
      <trkpt lat="47.565582041" lon="11.069643488">
        <ele>1093.2</ele>
        <time>2022-08-13T11:39:18Z</time>
      </trkpt>
      <trkpt lat="47.565580448" lon="11.069566794">
        <ele>1090.8</ele>
        <time>2022-08-13T11:39:33Z</time>
      </trkpt>
      <trkpt lat="47.565594278" lon="11.069485154">
        <ele>1087.9</ele>
        <time>2022-08-13T11:40:03Z</time>
      </trkpt>
      <trkpt lat="47.565627219" lon="11.069412651">
        <ele>1084.5</ele>
        <time>2022-08-13T11:40:38Z</time>
      </trkpt>
      <trkpt lat="47.565705087" lon="11.069518849">
        <ele>1081.1</ele>
        <time>2022-08-13T11:41:34Z</time>
      </trkpt>
      <trkpt lat="47.565741884" lon="11.069518933">
        <ele>1079.2</ele>
        <time>2022-08-13T11:41:47Z</time>
      </trkpt>
      <trkpt lat="47.565778513" lon="11.069434108">
        <ele>1073.0</ele>
        <time>2022-08-13T11:42:45Z</time>
      </trkpt>
      <trkpt lat="47.565790163" lon="11.069344673">
        <ele>1071.0</ele>
        <time>2022-08-13T11:43:05Z</time>
      </trkpt>
      <trkpt lat="47.565816147" lon="11.069360180">
        <ele>1069.6</ele>
        <time>2022-08-13T11:43:18Z</time>
      </trkpt>
      <trkpt lat="47.565923771" lon="11.069639213">
        <ele>1061.0</ele>
        <time>2022-08-13T11:44:26Z</time>
      </trkpt>
      <trkpt lat="47.565957550" lon="11.069616079">
        <ele>1058.5</ele>
        <time>2022-08-13T11:44:39Z</time>
      </trkpt>
      <trkpt lat="47.565969452" lon="11.069567800">
        <ele>1056.6</ele>
        <time>2022-08-13T11:44:55Z</time>
      </trkpt>
      <trkpt lat="47.566033825" lon="11.069512144">
        <ele>1052.8</ele>
        <time>2022-08-13T11:45:30Z</time>
      </trkpt>
      <trkpt lat="47.566065425" lon="11.069538211">
        <ele>1050.9</ele>
        <time>2022-08-13T11:45:48Z</time>
      </trkpt>
      <trkpt lat="47.566098366" lon="11.069504516">
        <ele>1049.4</ele>
        <time>2022-08-13T11:46:04Z</time>
      </trkpt>
      <trkpt lat="47.566132564" lon="11.069544079">
        <ele>1047.5</ele>
        <time>2022-08-13T11:46:21Z</time>
      </trkpt>
      <trkpt lat="47.566165924" lon="11.069638794">
        <ele>1045.1</ele>
        <time>2022-08-13T11:46:37Z</time>
      </trkpt>
      <trkpt lat="47.566179922" lon="11.069808360">
        <ele>1041.7</ele>
        <time>2022-08-13T11:47:12Z</time>
      </trkpt>
      <trkpt lat="47.566207163" lon="11.069787405">
        <ele>1039.3</ele>
        <time>2022-08-13T11:47:29Z</time>
      </trkpt>
      <trkpt lat="47.566286037" lon="11.069652038">
        <ele>1035.0</ele>
        <time>2022-08-13T11:48:18Z</time>
      </trkpt>
      <trkpt lat="47.566310428" lon="11.069654301">
        <ele>1032.6</ele>
        <time>2022-08-13T11:48:35Z</time>
      </trkpt>
      <trkpt lat="47.566382093" lon="11.069803080">
        <ele>1027.8</ele>
        <time>2022-08-13T11:49:08Z</time>
      </trkpt>
      <trkpt lat="47.566430876" lon="11.069809366">
        <ele>1025.4</ele>
        <time>2022-08-13T11:49:23Z</time>
      </trkpt>
      <trkpt lat="47.566506732" lon="11.069964180">
        <ele>1021.1</ele>
        <time>2022-08-13T11:49:55Z</time>
      </trkpt>
      <trkpt lat="47.566603795" lon="11.070077084">
        <ele>1016.2</ele>
        <time>2022-08-13T11:50:31Z</time>
      </trkpt>
      <trkpt lat="47.566690547" lon="11.070068870">
        <ele>1011.9</ele>
        <time>2022-08-13T11:50:59Z</time>
      </trkpt>
      <trkpt lat="47.566753244" lon="11.070179343">
        <ele>1009.0</ele>
        <time>2022-08-13T11:51:15Z</time>
      </trkpt>
      <trkpt lat="47.566754418" lon="11.070250254">
        <ele>1007.6</ele>
        <time>2022-08-13T11:51:28Z</time>
      </trkpt>
      <trkpt lat="47.566804374" lon="11.070329212">
        <ele>1003.3</ele>
        <time>2022-08-13T11:51:54Z</time>
      </trkpt>
      <trkpt lat="47.566833794" lon="11.070451252">
        <ele>999.4</ele>
        <time>2022-08-13T11:52:22Z</time>
      </trkpt>
      <trkpt lat="47.566844691" lon="11.070556780">
        <ele>994.6</ele>
        <time>2022-08-13T11:53:20Z</time>
      </trkpt>
      <trkpt lat="47.566921134" lon="11.070647556">
        <ele>990.8</ele>
        <time>2022-08-13T11:53:51Z</time>
      </trkpt>
      <trkpt lat="47.566918619" lon="11.070686113">
        <ele>989.8</ele>
        <time>2022-08-13T11:54:06Z</time>
      </trkpt>
      <trkpt lat="47.566941837" lon="11.070740679">
        <ele>987.9</ele>
        <time>2022-08-13T11:54:20Z</time>
      </trkpt>
      <trkpt lat="47.566948375" lon="11.070785942">
        <ele>985.5</ele>
        <time>2022-08-13T11:54:34Z</time>
      </trkpt>
      <trkpt lat="47.566934209" lon="11.070870347">
        <ele>983.6</ele>
        <time>2022-08-13T11:54:49Z</time>
      </trkpt>
      <trkpt lat="47.566893054" lon="11.070886357">
        <ele>982.1</ele>
        <time>2022-08-13T11:55:07Z</time>
      </trkpt>
      <trkpt lat="47.566891629" lon="11.070978641">
        <ele>977.3</ele>
        <time>2022-08-13T11:55:43Z</time>
      </trkpt>
      <trkpt lat="47.566931779" lon="11.071019378">
        <ele>975.4</ele>
        <time>2022-08-13T11:55:59Z</time>
      </trkpt>
      <trkpt lat="47.566984333" lon="11.071006302">
        <ele>973.0</ele>
        <time>2022-08-13T11:56:15Z</time>
      </trkpt>
      <trkpt lat="47.567019286" lon="11.071073692">
        <ele>970.6</ele>
        <time>2022-08-13T11:56:31Z</time>
      </trkpt>
      <trkpt lat="47.567023812" lon="11.071126331">
        <ele>968.7</ele>
        <time>2022-08-13T11:56:46Z</time>
      </trkpt>
      <trkpt lat="47.567120288" lon="11.071016109">
        <ele>962.4</ele>
        <time>2022-08-13T11:57:30Z</time>
      </trkpt>
      <trkpt lat="47.567146104" lon="11.071017114">
        <ele>960.5</ele>
        <time>2022-08-13T11:57:45Z</time>
      </trkpt>
      <trkpt lat="47.567165634" lon="11.071084421">
        <ele>958.6</ele>
        <time>2022-08-13T11:58:01Z</time>
      </trkpt>
      <trkpt lat="47.567192875" lon="11.071391534">
        <ele>949.9</ele>
        <time>2022-08-13T11:59:05Z</time>
      </trkpt>
      <trkpt lat="47.567162700" lon="11.071505528">
        <ele>946.1</ele>
        <time>2022-08-13T11:59:34Z</time>
      </trkpt>
      <trkpt lat="47.567235287" lon="11.071641482">
        <ele>939.4</ele>
        <time>2022-08-13T12:01:05Z</time>
      </trkpt>
      <trkpt lat="47.567252303" lon="11.071750196">
        <ele>936.0</ele>
        <time>2022-08-13T12:01:33Z</time>
      </trkpt>
      <trkpt lat="47.567288764" lon="11.071748100">
        <ele>933.1</ele>
        <time>2022-08-13T12:01:50Z</time>
      </trkpt>
      <trkpt lat="47.567333858" lon="11.071836697">
        <ele>929.2</ele>
        <time>2022-08-13T12:02:18Z</time>
      </trkpt>
      <trkpt lat="47.567391777" lon="11.071983632">
        <ele>924.0</ele>
        <time>2022-08-13T12:03:02Z</time>
      </trkpt>
      <trkpt lat="47.567476183" lon="11.071924791">
        <ele>920.1</ele>
        <time>2022-08-13T12:03:28Z</time>
      </trkpt>
      <trkpt lat="47.567492863" lon="11.072027469">
        <ele>918.2</ele>
        <time>2022-08-13T12:03:43Z</time>
      </trkpt>
      <trkpt lat="47.567483895" lon="11.072120844">
        <ele>915.8</ele>
        <time>2022-08-13T12:03:59Z</time>
      </trkpt>
      <trkpt lat="47.567432765" lon="11.072162669">
        <ele>913.9</ele>
        <time>2022-08-13T12:04:15Z</time>
      </trkpt>
      <trkpt lat="47.567428574" lon="11.072195442">
        <ele>912.0</ele>
        <time>2022-08-13T12:04:29Z</time>
      </trkpt>
      <trkpt lat="47.567604426" lon="11.072292253">
        <ele>905.2</ele>
        <time>2022-08-13T12:05:10Z</time>
      </trkpt>
      <trkpt lat="47.567637870" lon="11.072338773">
        <ele>902.3</ele>
        <time>2022-08-13T12:05:25Z</time>
      </trkpt>
      <trkpt lat="47.567738621" lon="11.072611939">
        <ele>897.0</ele>
        <time>2022-08-13T12:06:00Z</time>
      </trkpt>
      <trkpt lat="47.567910366" lon="11.072914693">
        <ele>891.8</ele>
        <time>2022-08-13T12:06:30Z</time>
      </trkpt>
      <trkpt lat="47.567984462" lon="11.073158607">
        <ele>889.4</ele>
        <time>2022-08-13T12:06:47Z</time>
      </trkpt>
      <trkpt lat="47.568066018" lon="11.073270338">
        <ele>887.4</ele>
        <time>2022-08-13T12:07:02Z</time>
      </trkpt>
      <trkpt lat="47.568199206" lon="11.073385002">
        <ele>882.6</ele>
        <time>2022-08-13T12:07:33Z</time>
      </trkpt>
      <trkpt lat="47.568367850" lon="11.073327921">
        <ele>881.2</ele>
        <time>2022-08-13T12:07:52Z</time>
      </trkpt>
      <trkpt lat="47.568426775" lon="11.073377291">
        <ele>880.2</ele>
        <time>2022-08-13T12:08:11Z</time>
      </trkpt>
      <trkpt lat="47.568485029" lon="11.073555741">
        <ele>879.3</ele>
        <time>2022-08-13T12:08:23Z</time>
      </trkpt>
      <trkpt lat="47.568698768" lon="11.073959917">
        <ele>875.4</ele>
        <time>2022-08-13T12:08:52Z</time>
      </trkpt>
      <trkpt lat="47.568831621" lon="11.074417150">
        <ele>871.6</ele>
        <time>2022-08-13T12:09:21Z</time>
      </trkpt>
      <trkpt lat="47.568803625" lon="11.074531646">
        <ele>871.6</ele>
        <time>2022-08-13T12:09:29Z</time>
      </trkpt>
      <trkpt lat="47.568694241" lon="11.074741948">
        <ele>872.0</ele>
        <time>2022-08-13T12:09:43Z</time>
      </trkpt>
      <trkpt lat="47.568690721" lon="11.075048558">
        <ele>871.6</ele>
        <time>2022-08-13T12:10:03Z</time>
      </trkpt>
      <trkpt lat="47.568305489" lon="11.075509060">
        <ele>870.1</ele>
        <time>2022-08-13T12:10:38Z</time>
      </trkpt>
      <trkpt lat="47.568222508" lon="11.075645182">
        <ele>869.2</ele>
        <time>2022-08-13T12:10:49Z</time>
      </trkpt>
      <trkpt lat="47.568129636" lon="11.075911894">
        <ele>867.2</ele>
        <time>2022-08-13T12:11:07Z</time>
      </trkpt>
      <trkpt lat="47.567713140" lon="11.076886458">
        <ele>861.5</ele>
        <time>2022-08-13T12:12:16Z</time>
      </trkpt>
      <trkpt lat="47.567669889" lon="11.077073794">
        <ele>860.5</ele>
        <time>2022-08-13T12:12:29Z</time>
      </trkpt>
      <trkpt lat="47.567805257" lon="11.077414602">
        <ele>858.6</ele>
        <time>2022-08-13T12:12:51Z</time>
      </trkpt>
      <trkpt lat="47.567824870" lon="11.077770162">
        <ele>858.1</ele>
        <time>2022-08-13T12:13:13Z</time>
      </trkpt>
      <trkpt lat="47.567796875" lon="11.078074426">
        <ele>858.1</ele>
        <time>2022-08-13T12:13:33Z</time>
      </trkpt>
      <trkpt lat="47.567712134" lon="11.078392183">
        <ele>858.1</ele>
        <time>2022-08-13T12:13:53Z</time>
      </trkpt>
      <trkpt lat="47.567597721" lon="11.078738188">
        <ele>858.1</ele>
        <time>2022-08-13T12:14:16Z</time>
      </trkpt>
      <trkpt lat="47.567473249" lon="11.079043038">
        <ele>857.6</ele>
        <time>2022-08-13T12:14:38Z</time>
      </trkpt>
      <trkpt lat="47.567389179" lon="11.079321150">
        <ele>858.1</ele>
        <time>2022-08-13T12:14:59Z</time>
      </trkpt>
      <trkpt lat="47.567299744" lon="11.079501528">
        <ele>858.6</ele>
        <time>2022-08-13T12:15:17Z</time>
      </trkpt>
      <trkpt lat="47.567240652" lon="11.079701185">
        <ele>860.0</ele>
        <time>2022-08-13T12:15:34Z</time>
      </trkpt>
      <trkpt lat="47.567196814" lon="11.079880809">
        <ele>861.0</ele>
        <time>2022-08-13T12:15:49Z</time>
      </trkpt>
      <trkpt lat="47.567196563" lon="11.080079041">
        <ele>862.4</ele>
        <time>2022-08-13T12:16:05Z</time>
      </trkpt>
      <trkpt lat="47.567117102" lon="11.080235364">
        <ele>864.4</ele>
        <time>2022-08-13T12:16:20Z</time>
      </trkpt>
      <trkpt lat="47.567119952" lon="11.080410294">
        <ele>865.8</ele>
        <time>2022-08-13T12:16:35Z</time>
      </trkpt>
      <trkpt lat="47.567079803" lon="11.080618165">
        <ele>867.2</ele>
        <time>2022-08-13T12:16:53Z</time>
      </trkpt>
      <trkpt lat="47.566940328" lon="11.080741547">
        <ele>868.7</ele>
        <time>2022-08-13T12:17:09Z</time>
      </trkpt>
      <trkpt lat="47.566858437" lon="11.080890661">
        <ele>870.6</ele>
        <time>2022-08-13T12:17:27Z</time>
      </trkpt>
      <trkpt lat="47.566812588" lon="11.081021419">
        <ele>872.5</ele>
        <time>2022-08-13T12:17:42Z</time>
      </trkpt>
      <trkpt lat="47.566707060" lon="11.081132479">
        <ele>874.5</ele>
        <time>2022-08-13T12:18:00Z</time>
      </trkpt>
      <trkpt lat="47.566482089" lon="11.081291735">
        <ele>877.3</ele>
        <time>2022-08-13T12:18:33Z</time>
      </trkpt>
      <trkpt lat="47.566427523" lon="11.081307661">
        <ele>878.8</ele>
        <time>2022-08-13T12:18:49Z</time>
      </trkpt>
      <trkpt lat="47.566358289" lon="11.081390725">
        <ele>878.8</ele>
        <time>2022-08-13T12:19:39Z</time>
      </trkpt>
      <trkpt lat="47.566317720" lon="11.081393827">
        <ele>878.8</ele>
        <time>2022-08-13T12:19:43Z</time>
      </trkpt>
      <trkpt lat="47.566135582" lon="11.081510084">
        <ele>880.7</ele>
        <time>2022-08-13T12:20:02Z</time>
      </trkpt>
      <trkpt lat="47.565961741" lon="11.081713093">
        <ele>881.2</ele>
        <time>2022-08-13T12:20:26Z</time>
      </trkpt>
      <trkpt lat="47.565801395" lon="11.081985673">
        <ele>882.1</ele>
        <time>2022-08-13T12:20:56Z</time>
      </trkpt>
      <trkpt lat="47.565676421" lon="11.082149288">
        <ele>882.1</ele>
        <time>2022-08-13T12:21:15Z</time>
      </trkpt>
      <trkpt lat="47.565531833" lon="11.082226820">
        <ele>882.6</ele>
        <time>2022-08-13T12:21:34Z</time>
      </trkpt>
      <trkpt lat="47.565436279" lon="11.082341149">
        <ele>883.6</ele>
        <time>2022-08-13T12:21:50Z</time>
      </trkpt>
      <trkpt lat="47.565424377" lon="11.082534101">
        <ele>885.5</ele>
        <time>2022-08-13T12:22:14Z</time>
      </trkpt>
      <trkpt lat="47.565511884" lon="11.082702326">
        <ele>887.0</ele>
        <time>2022-08-13T12:22:33Z</time>
      </trkpt>
      <trkpt lat="47.565594614" lon="11.082807351">
        <ele>887.4</ele>
        <time>2022-08-13T12:22:47Z</time>
      </trkpt>
      <trkpt lat="47.565700812" lon="11.083156876">
        <ele>887.4</ele>
        <time>2022-08-13T12:23:11Z</time>
      </trkpt>
      <trkpt lat="47.565679355" lon="11.083337506">
        <ele>887.0</ele>
        <time>2022-08-13T12:23:21Z</time>
      </trkpt>
      <trkpt lat="47.565509873" lon="11.083509671">
        <ele>887.4</ele>
        <time>2022-08-13T12:23:41Z</time>
      </trkpt>
      <trkpt lat="47.565448936" lon="11.083698096">
        <ele>887.9</ele>
        <time>2022-08-13T12:23:59Z</time>
      </trkpt>
      <trkpt lat="47.565443069" lon="11.083786860">
        <ele>887.9</ele>
        <time>2022-08-13T12:24:06Z</time>
      </trkpt>
      <trkpt lat="47.565362854" lon="11.084000682">
        <ele>889.4</ele>
        <time>2022-08-13T12:24:23Z</time>
      </trkpt>
      <trkpt lat="47.565292362" lon="11.084078550">
        <ele>889.4</ele>
        <time>2022-08-13T12:24:32Z</time>
      </trkpt>
      <trkpt lat="47.565105530" lon="11.084406702">
        <ele>889.8</ele>
        <time>2022-08-13T12:25:01Z</time>
      </trkpt>
      <trkpt lat="47.565037468" lon="11.084671402">
        <ele>890.3</ele>
        <time>2022-08-13T12:25:22Z</time>
      </trkpt>
      <trkpt lat="47.564831609" lon="11.085251430">
        <ele>888.9</ele>
        <time>2022-08-13T12:26:08Z</time>
      </trkpt>
      <trkpt lat="47.564734882" lon="11.085560303">
        <ele>888.4</ele>
        <time>2022-08-13T12:26:33Z</time>
      </trkpt>
      <trkpt lat="47.564739073" lon="11.085858531">
        <ele>887.9</ele>
        <time>2022-08-13T12:26:52Z</time>
      </trkpt>
      <trkpt lat="47.564717866" lon="11.086014016">
        <ele>887.4</ele>
        <time>2022-08-13T12:27:03Z</time>
      </trkpt>
      <trkpt lat="47.564658271" lon="11.086283159">
        <ele>887.9</ele>
        <time>2022-08-13T12:27:20Z</time>
      </trkpt>
      <trkpt lat="47.564570932" lon="11.086498825">
        <ele>887.9</ele>
        <time>2022-08-13T12:27:35Z</time>
      </trkpt>
      <trkpt lat="47.564548049" lon="11.086910209">
        <ele>886.0</ele>
        <time>2022-08-13T12:28:07Z</time>
      </trkpt>
      <trkpt lat="47.564747287" lon="11.087590400">
        <ele>884.5</ele>
        <time>2022-08-13T12:29:01Z</time>
      </trkpt>
      <trkpt lat="47.564773103" lon="11.088261036">
        <ele>883.1</ele>
        <time>2022-08-13T12:29:40Z</time>
      </trkpt>
      <trkpt lat="47.564759860" lon="11.088495394">
        <ele>883.1</ele>
        <time>2022-08-13T12:29:54Z</time>
      </trkpt>
      <trkpt lat="47.564788777" lon="11.088804351">
        <ele>884.1</ele>
        <time>2022-08-13T12:30:16Z</time>
      </trkpt>
      <trkpt lat="47.564837141" lon="11.089011133">
        <ele>885.0</ele>
        <time>2022-08-13T12:30:35Z</time>
      </trkpt>
      <trkpt lat="47.564862873" lon="11.089207185">
        <ele>885.5</ele>
        <time>2022-08-13T12:30:51Z</time>
      </trkpt>
      <trkpt lat="47.564860024" lon="11.089447998">
        <ele>886.5</ele>
        <time>2022-08-13T12:31:09Z</time>
      </trkpt>
      <trkpt lat="47.564757010" lon="11.089959964">
        <ele>888.9</ele>
        <time>2022-08-13T12:31:55Z</time>
      </trkpt>
      <trkpt lat="47.564742928" lon="11.090509314">
        <ele>886.0</ele>
        <time>2022-08-13T12:32:29Z</time>
      </trkpt>
      <trkpt lat="47.564755753" lon="11.090697823">
        <ele>884.5</ele>
        <time>2022-08-13T12:32:48Z</time>
      </trkpt>
      <trkpt lat="47.564836303" lon="11.090980712">
        <ele>882.6</ele>
        <time>2022-08-13T12:33:04Z</time>
      </trkpt>
      <trkpt lat="47.564873351" lon="11.091185231">
        <ele>881.7</ele>
        <time>2022-08-13T12:33:14Z</time>
      </trkpt>
      <trkpt lat="47.564785089" lon="11.091554621">
        <ele>879.3</ele>
        <time>2022-08-13T12:33:33Z</time>
      </trkpt>
      <trkpt lat="47.564670676" lon="11.091745561">
        <ele>877.8</ele>
        <time>2022-08-13T12:33:49Z</time>
      </trkpt>
      <trkpt lat="47.564688698" lon="11.091973968">
        <ele>877.8</ele>
        <time>2022-08-13T12:34:05Z</time>
      </trkpt>
      <trkpt lat="47.564672939" lon="11.092161052">
        <ele>878.3</ele>
        <time>2022-08-13T12:34:17Z</time>
      </trkpt>
      <trkpt lat="47.564625582" lon="11.092256438">
        <ele>878.3</ele>
        <time>2022-08-13T12:34:24Z</time>
      </trkpt>
      <trkpt lat="47.564584510" lon="11.092513930">
        <ele>878.3</ele>
        <time>2022-08-13T12:34:42Z</time>
      </trkpt>
      <trkpt lat="47.564576883" lon="11.092751306">
        <ele>878.8</ele>
        <time>2022-08-13T12:34:59Z</time>
      </trkpt>
      <trkpt lat="47.564588785" lon="11.092853397">
        <ele>878.8</ele>
        <time>2022-08-13T12:35:07Z</time>
      </trkpt>
      <trkpt lat="47.564646536" lon="11.093001924">
        <ele>878.8</ele>
        <time>2022-08-13T12:35:21Z</time>
      </trkpt>
      <trkpt lat="47.564632539" lon="11.093717404">
        <ele>881.2</ele>
        <time>2022-08-13T12:36:15Z</time>
      </trkpt>
      <trkpt lat="47.564586271" lon="11.094472781">
        <ele>883.1</ele>
        <time>2022-08-13T12:37:10Z</time>
      </trkpt>
      <trkpt lat="47.564624911" lon="11.094801016">
        <ele>881.7</ele>
        <time>2022-08-13T12:37:32Z</time>
      </trkpt>
      <trkpt lat="47.564611668" lon="11.095032021">
        <ele>882.1</ele>
        <time>2022-08-13T12:37:48Z</time>
      </trkpt>
      <trkpt lat="47.564577134" lon="11.095251879">
        <ele>883.1</ele>
        <time>2022-08-13T12:38:05Z</time>
      </trkpt>
      <trkpt lat="47.564529190" lon="11.095343409">
        <ele>883.1</ele>
        <time>2022-08-13T12:38:13Z</time>
      </trkpt>
      <trkpt lat="47.564321486" lon="11.095461007">
        <ele>884.1</ele>
        <time>2022-08-13T12:38:35Z</time>
      </trkpt>
      <trkpt lat="47.563954443" lon="11.095504342">
        <ele>885.0</ele>
        <time>2022-08-13T12:39:13Z</time>
      </trkpt>
      <trkpt lat="47.563797617" lon="11.095605511">
        <ele>886.0</ele>
        <time>2022-08-13T12:39:32Z</time>
      </trkpt>
      <trkpt lat="47.563685048" lon="11.095780944">
        <ele>887.0</ele>
        <time>2022-08-13T12:39:51Z</time>
      </trkpt>
      <trkpt lat="47.563605085" lon="11.096033994">
        <ele>887.9</ele>
        <time>2022-08-13T12:40:14Z</time>
      </trkpt>
      <trkpt lat="47.563107200" lon="11.096525174">
        <ele>889.4</ele>
        <time>2022-08-13T12:41:16Z</time>
      </trkpt>
      <trkpt lat="47.563010221" lon="11.096717119">
        <ele>890.3</ele>
        <time>2022-08-13T12:41:36Z</time>
      </trkpt>
      <trkpt lat="47.562800674" lon="11.097621275">
        <ele>893.7</ele>
        <time>2022-08-13T12:42:52Z</time>
      </trkpt>
      <trkpt lat="47.562722638" lon="11.097811125">
        <ele>894.6</ele>
        <time>2022-08-13T12:43:11Z</time>
      </trkpt>
      <trkpt lat="47.562604453" lon="11.098024612">
        <ele>895.6</ele>
        <time>2022-08-13T12:43:33Z</time>
      </trkpt>
      <trkpt lat="47.562444024" lon="11.098158974">
        <ele>897.0</ele>
        <time>2022-08-13T12:43:54Z</time>
      </trkpt>
      <trkpt lat="47.562083267" lon="11.098367516">
        <ele>899.0</ele>
        <time>2022-08-13T12:44:36Z</time>
      </trkpt>
      <trkpt lat="47.561767688" lon="11.098670270">
        <ele>899.9</ele>
        <time>2022-08-13T12:45:16Z</time>
      </trkpt>
      <trkpt lat="47.561639529" lon="11.098820893">
        <ele>901.4</ele>
        <time>2022-08-13T12:45:36Z</time>
      </trkpt>
      <trkpt lat="47.561540119" lon="11.099029100">
        <ele>901.9</ele>
        <time>2022-08-13T12:45:54Z</time>
      </trkpt>
      <trkpt lat="47.561082048" lon="11.099447273">
        <ele>901.4</ele>
        <time>2022-08-13T12:46:48Z</time>
      </trkpt>
      <trkpt lat="47.560927905" lon="11.099707615">
        <ele>899.9</ele>
        <time>2022-08-13T12:47:09Z</time>
      </trkpt>
      <trkpt lat="47.560872668" lon="11.099984553">
        <ele>899.5</ele>
        <time>2022-08-13T12:47:29Z</time>
      </trkpt>
      <trkpt lat="47.560873171" lon="11.100275572">
        <ele>900.4</ele>
        <time>2022-08-13T12:47:50Z</time>
      </trkpt>
      <trkpt lat="47.560896138" lon="11.100494340">
        <ele>900.4</ele>
        <time>2022-08-13T12:48:06Z</time>
      </trkpt>
      <trkpt lat="47.561183134" lon="11.100602467">
        <ele>897.5</ele>
        <time>2022-08-13T12:48:42Z</time>
      </trkpt>
      <trkpt lat="47.561349515" lon="11.100731799">
        <ele>895.6</ele>
        <time>2022-08-13T12:49:00Z</time>
      </trkpt>
      <trkpt lat="47.561629135" lon="11.100876387">
        <ele>890.3</ele>
        <time>2022-08-13T12:51:08Z</time>
      </trkpt>
    </trkseg>
  </trk>
</gpx>
